LH8231 / D-ALCK 7700 Squawk Report (22nd of September, 2018)

Aircraft MD11 Reg No. D-ALCK Age 18 years old
Model MD-11 Jet engines 3 First flight 12-05-00
Registered 31-05-00 Rollout 04-00 Delivered 31-05-00
Construction No. 48803 Line No. 643 Series F
ADSHEX 3C706B Airline name Lufthansa Cargo Owner Wells Fargo Trust Co NA Trustee
Airfield based Frankfurt-Main~Hessen~D First tracked 2011-04-02 05:05:01

Flight history for D-ALCK

Route Flight No Date Playback
Afonso Pena (CWB) - Viracopos (VCP) - Greater Natal International (NAT) - DSS - Frankfurt Main (FRA) LH8269 2018-10-16 16:23:00
Frankfurt Main (FRA) - DSS - Viracopos (VCP) - Afonso Pena (CWB) LH8268 2018-10-16 12:25:00
Baiyun Intl (CAN) - Tolmachevo (OVB) - Frankfurt Main (FRA) LH8415 2018-10-15 17:35:00
Frankfurt Main (FRA) - Almaty (ALA) - Baiyun Intl (CAN) LH8414 2018-10-14 21:07:00
???? N/A 2018-10-13 11:09:00
Frankfurt Main (FRA) - Hartsfield Jackson Atlanta Intl (ATL) LH8176 2018-10-13 03:24:00
Viracopos (VCP) - Carrasco Intl (MVD) - Ministro Pistarini (EZE) - DSS - Frankfurt Main (FRA) LH8265 2018-10-12 15:09:00
Frankfurt Main (FRA) - DSS - Viracopos (VCP) - Carrasco Intl (MVD) - Ministro Pistarini (EZE) LH8264 2018-10-10 16:27:00
Seattle Tacoma Intl (SEA) - Los Angeles Intl (LAX) - Frankfurt Main (FRA) LH8231 2018-10-07 14:30:00
Frankfurt Main (FRA) - Los Angeles Intl (LAX) LH8230 2018-10-07 01:17:00
Cairo Intl (CAI) - Frankfurt Main (FRA) LH8291 2018-10-06 13:53:00
Frankfurt Main (FRA) - Cairo Intl (CAI) LH8290 2018-10-05 21:50:00
Hartsfield Jackson Atlanta Intl (ATL) - Frankfurt Main (FRA) LH8175 2018-10-05 18:14:00
Frankfurt Main (FRA) - Hartsfield Jackson Atlanta Intl (ATL) LH8174 2018-10-05 05:55:00
Chicago Ohare Intl (ORD) - Los Angeles Intl (LAX) - Frankfurt Main (FRA) LH8231 2018-10-04 17:41:00
Chicago Ohare Intl (ORD) - Los Angeles Intl (LAX) LH8230 2018-10-03 21:53:00
Hong Kong Intl (HKG) - Tolmachevo (OVB) - Frankfurt Main (FRA) LH8455 2018-10-03 06:32:00
Frankfurt Main (FRA) - King Fahd Intl (DMM) - Sharjah Intl (SHJ) - Hong Kong Intl (HKG) LH8454 2018-10-02 12:51:00
Frankfurt Main (FRA) - King Fahd Intl (DMM) - Sharjah Intl (SHJ) - Hong Kong Intl (HKG) LH8454 2018-10-02 09:22:00
O. R. Tambo International Airport (JNB) - Jomo Kenyatta International (NBO) - Frankfurt Main (FRA) LH8297 2018-10-01 12:35:00
Time Lat Lon Altitude Heading Speed Vertical Rate
2018-09-22 10:06:41 GMT 50.039806 8.546930 0 340 8 0
2018-09-22 10:06:33 GMT 50.039536 8.546992 0 22 8 0
2018-09-22 10:06:22 GMT 50.039303 8.546454 0 70 11 0
2018-09-22 10:06:15 GMT 50.039150 8.545842 0 70 13 0
2018-09-22 10:06:05 GMT 50.038982 8.545123 0 70 12 0
2018-09-22 10:05:47 GMT 50.038651 8.543785 0 67 10 0
2018-09-22 10:05:41 GMT 50.038570 8.543503 0 53 9 0
2018-09-22 10:05:34 GMT 50.038353 8.543225 0 348 11 0
2018-09-22 10:04:03 GMT 50.036865 8.543912 0 22 8 0
2018-09-22 10:03:59 GMT 50.036743 8.543819 0 61 12 0
2018-09-22 10:03:50 GMT 50.036659 8.543355 0 39 12 0
2018-09-22 10:03:28 GMT 50.036018 8.543153 0 337 8 0
2018-09-22 10:03:18 GMT 50.035629 8.543370 0 340 12 0
2018-09-22 10:03:04 GMT 50.034908 8.543804 0 340 12 0
2018-09-22 10:02:56 GMT 50.034439 8.544060 0 337 11 0
2018-09-22 10:02:44 GMT 50.033962 8.544338 0 340 11 0
2018-09-22 10:02:32 GMT 50.033398 8.544671 0 337 9 0
2018-09-22 10:02:13 GMT 50.032883 8.544960 0 340 7 0
2018-09-22 10:01:09 GMT 50.032776 8.545025 0 340 4 0
2018-09-22 10:00:20 GMT 50.032780 8.545032 0 340 4 0
2018-09-22 10:00:01 GMT 50.032761 8.545044 0 340 4 0
2018-09-22 09:59:35 GMT 50.032768 8.545032 0 340 5 0
2018-09-22 09:59:16 GMT 50.032761 8.545044 0 340 5 0
2018-09-22 09:57:41 GMT 50.032848 8.556308 0 250 63 0
2018-09-22 09:57:33 GMT 50.033764 8.560168 0 250 80 0
2018-09-22 09:57:22 GMT 50.035492 8.567402 0 250 125 0
2018-09-22 09:57:11 GMT 50.037975 8.577650 100 250 150 -128
2018-09-22 09:57:00 GMT 50.040756 8.589429 225 250 154 -640
2018-09-22 09:56:53 GMT 50.042358 8.596151 300 250 155 -640
2018-09-22 09:56:50 GMT 50.043045 8.599115 500 250 152 -768
2018-09-22 09:56:41 GMT 50.045288 8.608511 525 250 151 -896
2018-09-22 09:56:36 GMT 50.046432 8.613426 550 250 151 -896
2018-09-22 09:56:33 GMT 50.047195 8.616473 575 250 151 -960
2018-09-22 09:56:30 GMT 50.048077 8.620111 625 250 151 -832
2018-09-22 09:56:24 GMT 50.049660 8.626643 725 250 152 -832
2018-09-22 09:56:21 GMT 50.050278 8.629327 750 250 153 -832
2018-09-22 09:56:16 GMT 50.051422 8.634314 900 251 152 -768
2018-09-22 09:56:13 GMT 50.052174 8.637407 875 250 152 -704
2018-09-22 09:56:09 GMT 50.053116 8.641325 900 250 152 -704
2018-09-22 09:56:06 GMT 50.054077 8.645445 975 250 151 -832
2018-09-22 09:56:03 GMT 50.054764 8.648264 1,000 251 150 -896
2018-09-22 09:55:59 GMT 50.055588 8.651950 1,050 251 150 -896
2018-09-22 09:55:55 GMT 50.056549 8.656070 1,300 250 151 -832
2018-09-22 09:55:52 GMT 50.057247 8.659082 1,150 250 151 -896
2018-09-22 09:55:47 GMT 50.058319 8.663611 1,225 250 151 -768
2018-09-22 09:55:44 GMT 50.059021 8.666695 1,300 250 151 -832
2018-09-22 09:55:41 GMT 50.060120 8.671176 1,325 249 152 -832
2018-09-22 09:55:37 GMT 50.060760 8.673634 1,375 249 151 -704
2018-09-22 09:55:32 GMT 50.062271 8.679633 1,475 249 150 -896
2018-09-22 09:55:27 GMT 50.063393 8.684247 1,500 251 149 -768
2018-09-22 09:55:22 GMT 50.064606 8.689592 1,600 251 150 -960
2018-09-22 09:55:18 GMT 50.065536 8.693600 1,650 251 150 -832
2018-09-22 09:55:14 GMT 50.067444 8.701766 1,725 250 151 -640
2018-09-22 09:55:10 GMT 50.067444 8.701766 1,750 250 150 -640
2018-09-22 09:55:06 GMT 50.068542 8.706448 1,800 250 149 -640
2018-09-22 09:55:01 GMT 50.070332 8.713866 1,875 250 148 -768
2018-09-22 09:54:58 GMT 50.070332 8.713866 1,925 250 149 -832
2018-09-22 09:54:55 GMT 50.070984 8.716686 1,925 250 149 -832
2018-09-22 09:54:49 GMT 50.073311 8.726411 2,025 250 150 -832
2018-09-22 09:54:45 GMT 50.073311 8.726411 2,050 250 150 -832
2018-09-22 09:54:39 GMT 50.075031 8.733685 2,175 251 147 -704
2018-09-22 09:54:36 GMT 50.075729 8.736661 2,200 251 146 -832
2018-09-22 09:54:31 GMT 50.076920 8.741792 2,250 250 146 -768
2018-09-22 09:54:27 GMT 50.077652 8.744973 2,300 250 146 -832
2018-09-22 09:54:23 GMT 50.078430 8.748081 2,350 250 146 -768
2018-09-22 09:54:20 GMT 50.079224 8.751427 2,400 250 145 -832
2018-09-22 09:54:17 GMT 50.080032 8.754803 2,450 250 145 -832
2018-09-22 09:54:12 GMT 50.081036 8.758924 2,500 250 147 -832
2018-09-22 09:54:09 GMT 50.081726 8.761886 2,525 251 146 -832
2018-09-22 09:54:06 GMT 50.082458 8.765066 2,575 251 148 -768
2018-09-22 09:54:02 GMT 50.083504 8.769688 2,625 251 150 -576
2018-09-22 09:53:56 GMT 50.084702 8.775257 2,675 253 149 -448
2018-09-22 09:53:51 GMT 50.085800 8.780606 2,725 252 146 -576
2018-09-22 09:53:46 GMT 50.086948 8.785945 2,775 251 145 -576
2018-09-22 09:53:43 GMT 50.087788 8.789434 2,800 250 145 -512
2018-09-22 09:53:38 GMT 50.088718 8.793368 2,825 248 146 -512
2018-09-22 09:53:33 GMT 50.090626 8.800346 2,950 241 147 -512
2018-09-22 09:53:28 GMT 50.091431 8.802795 2,925 241 147 -512
2018-09-22 09:53:24 GMT 50.092804 8.806482 2,950 235 148 -448
2018-09-22 09:53:19 GMT 50.094955 8.810590 3,000 225 148 -448
2018-09-22 09:53:14 GMT 50.097797 8.814598 3,050 219 148 -640
2018-09-22 09:53:09 GMT 50.100311 8.817612 3,100 217 148 -704
2018-09-22 09:53:06 GMT 50.101868 8.819419 3,175 217 149 -704
2018-09-22 09:53:02 GMT 50.104176 8.822096 3,225 217 149 -768
2018-09-22 09:52:58 GMT 50.106720 8.824985 3,250 217 149 -768
2018-09-22 09:52:54 GMT 50.108963 8.827515 3,500 217 153 -960
2018-09-22 09:52:47 GMT 50.112762 8.831924 3,375 217 153 -960
2018-09-22 09:52:44 GMT 50.115051 8.834598 3,450 217 155 -960
2018-09-22 09:52:40 GMT 50.116741 8.836645 3,500 217 157 -960
2018-09-22 09:52:37 GMT 50.120911 8.841320 3,600 216 160 -1152
2018-09-22 09:52:33 GMT 50.120911 8.841320 3,675 216 161 -1152
2018-09-22 09:52:27 GMT 50.124424 8.845256 3,750 216 164 -1216
2018-09-22 09:52:23 GMT 50.127502 8.848765 3,850 217 165 -1088
2018-09-22 09:52:19 GMT 50.129128 8.850601 4,200 186 192 -1152
2018-09-22 09:52:15 GMT 50.134003 8.856281 4,025 216 172 -1088
2018-09-22 09:52:12 GMT 50.134003 8.856281 4,025 214 173 -1088
2018-09-22 09:52:08 GMT 50.136429 8.858739 4,100 207 179 -1088
2018-09-22 09:52:04 GMT 50.139404 8.860980 4,200 180 197 -1216
2018-09-22 09:52:01 GMT 50.142014 8.862281 4,250 188 190 -1152
2018-09-22 09:51:56 GMT 50.146591 8.863076 4,350 177 198 -1152
2018-09-22 09:51:53 GMT 50.148468 8.862931 4,375 175 200 -1152
2018-09-22 09:51:50 GMT 50.151810 8.861991 4,500 167 205 -1024
2018-09-22 09:51:46 GMT 50.155151 8.860401 4,500 159 214 -448
2018-09-22 09:51:43 GMT 50.157894 8.858618 4,525 155 219 -384
2018-09-22 09:51:40 GMT 50.161617 8.855945 4,550 154 221 -384
2018-09-22 09:51:34 GMT 50.169800 8.850066 4,600 155 231 -832
2018-09-22 09:51:31 GMT 50.169800 8.850066 4,600 155 231 -960
2018-09-22 09:51:26 GMT 50.174702 8.846592 4,700 154 233 -1088
2018-09-22 09:51:23 GMT 50.177029 8.844885 4,775 152 245 -640
2018-09-22 09:51:19 GMT 50.181198 8.841754 4,775 152 242 -320
2018-09-22 09:51:16 GMT 50.184769 8.838862 4,775 152 243 -512
2018-09-22 09:51:12 GMT 50.190620 8.834196 4,850 155 248 -1216
2018-09-22 09:51:09 GMT 50.191414 8.833527 4,850 153 247 -1024
2018-09-22 09:51:03 GMT 50.198956 8.828257 5,025 156 251 -1344
2018-09-22 09:51:00 GMT 50.201515 8.826550 5,075 156 253 -1344
2018-09-22 09:50:57 GMT 50.204075 8.824768 5,125 155 255 -1408
2018-09-22 09:50:53 GMT 50.207985 8.822021 5,200 152 259 -1280
2018-09-22 09:50:50 GMT 50.211803 8.818830 5,300 147 264 -1152
2018-09-22 09:50:47 GMT 50.218273 8.811852 5,375 141 270 -1024
2018-09-22 09:50:44 GMT 50.218273 8.811852 5,400 139 273 -896
2018-09-22 09:50:41 GMT 50.220749 8.808433 5,450 132 279 -896
2018-09-22 09:50:38 GMT 50.228374 8.794630 5,650 127 287 -1280
2018-09-22 09:50:32 GMT 50.228374 8.794630 5,575 127 286 -1024
2018-09-22 09:50:29 GMT 50.230984 8.789359 5,675 127 288 -1280
2018-09-22 09:50:23 GMT 50.235626 8.779739 5,750 127 289 -1536
2018-09-22 09:50:20 GMT 50.240944 8.768797 5,950 126 288 -1984
2018-09-22 09:50:17 GMT 50.240944 8.768797 6,025 126 288 -2048
2018-09-22 09:50:12 GMT 50.244434 8.761448 6,800 127 289 -1536
2018-09-22 09:50:09 GMT 50.247276 8.755361 6,225 126 288 -1728
2018-09-22 09:50:04 GMT 50.250160 8.749348 6,575 126 289 -1536
2018-09-22 09:50:01 GMT 50.252563 8.744394 6,400 127 289 -1600
2018-09-22 09:49:58 GMT 50.255493 8.738395 6,500 127 289 -1856
2018-09-22 09:49:55 GMT 50.258102 8.733119 6,550 127 289 -1920
2018-09-22 09:49:52 GMT 50.260590 8.728192 6,700 127 287 -1984
2018-09-22 09:49:49 GMT 50.262871 8.723590 6,850 127 288 -1792
2018-09-22 09:49:46 GMT 50.265804 8.717726 6,925 127 288 -1728
2018-09-22 09:49:42 GMT 50.268738 8.711787 7,025 127 286 -1664
2018-09-22 09:49:38 GMT 50.271950 8.705255 7,100 127 286 -1600
2018-09-22 09:49:35 GMT 50.274078 8.700955 7,200 127 286 -1472
2018-09-22 09:49:32 GMT 50.276791 8.695382 7,300 127 287 -1088
2018-09-22 09:49:28 GMT 50.280048 8.688775 7,375 127 289 -640
2018-09-22 09:49:25 GMT 50.282001 8.684841 7,375 127 291 -640
2018-09-22 09:49:22 GMT 50.285263 8.678160 7,425 127 293 -640
2018-09-22 09:49:17 GMT 50.288895 8.670737 7,450 127 294 -640
2018-09-22 09:49:14 GMT 50.291748 8.665033 7,500 127 297 -704
2018-09-22 09:49:11 GMT 50.293919 8.660567 7,550 127 298 -704
2018-09-22 09:49:06 GMT 50.298111 8.652023 7,625 127 303 -1024
2018-09-22 09:49:03 GMT 50.300125 8.647830 7,775 127 303 -1024
2018-09-22 09:49:00 GMT 50.303696 8.640524 7,700 127 305 -1088
2018-09-22 09:48:57 GMT 50.306305 8.635326 7,800 127 313 -2432
2018-09-22 09:48:54 GMT 50.309418 8.629038 7,825 127 307 -1280
2018-09-22 09:48:49 GMT 50.313427 8.620927 7,925 127 308 -1792
2018-09-22 09:48:46 GMT 50.315323 8.617112 7,975 127 308 -1856
2018-09-22 09:48:43 GMT 50.317795 8.612125 8,050 127 309 -1792
2018-09-22 09:48:39 GMT 50.321156 8.605487 8,175 128 310 -1664
2018-09-22 09:48:36 GMT 50.324692 8.598435 8,325 128 310 -1728
2018-09-22 09:48:32 GMT 50.327362 8.593116 8,400 127 312 -2112
2018-09-22 09:48:28 GMT 50.331940 8.583864 8,500 127 312 -2368
2018-09-22 09:48:25 GMT 50.333908 8.579951 8,950 127 315 -2240
2018-09-22 09:48:22 GMT 50.336929 8.573817 8,825 127 315 -2304
2018-09-22 09:48:17 GMT 50.341404 8.564882 9,050 128 316 -2368
2018-09-22 09:48:09 GMT 50.349152 8.549387 9,375 127 315 -3264
2018-09-22 09:48:03 GMT 50.353600 8.540385 9,525 127 313 -3648
2018-09-22 09:48:00 GMT 50.356022 8.535338 9,825 126 311 -3520
2018-09-22 09:47:57 GMT 50.359138 8.528805 10,025 126 312 -1984
2018-09-22 09:47:53 GMT 50.362061 8.522644 10,125 126 313 -1600
2018-09-22 09:47:50 GMT 50.364807 8.516789 10,225 125 315 -1152
2018-09-22 09:47:47 GMT 50.367188 8.511585 10,275 126 317 -960
2018-09-22 09:47:43 GMT 50.370499 8.504531 10,350 126 322 -960
2018-09-22 09:47:40 GMT 50.376133 8.492432 10,425 126 329 -960
2018-09-22 09:47:33 GMT 50.380646 8.482819 10,525 126 337 -1024
2018-09-22 09:47:27 GMT 50.385582 8.472315 10,800 126 339 -1024
2018-09-22 09:47:22 GMT 50.389305 8.464372 10,675 126 346 -1024
2018-09-22 09:47:19 GMT 50.393028 8.456355 10,775 126 350 -1152
2018-09-22 09:47:15 GMT 50.396477 8.448932 10,800 126 351 -1216
2018-09-22 09:47:12 GMT 50.402248 8.436535 11,000 126 357 -2688
2018-09-22 09:47:06 GMT 50.404816 8.431139 11,675 126 369 -2048
2018-09-22 09:47:03 GMT 50.407562 8.425285 11,325 126 361 -1856
2018-09-22 09:47:00 GMT 50.412117 8.415602 11,375 126 365 -1856
2018-09-22 09:46:56 GMT 50.414909 8.409737 11,475 126 365 -1856
2018-09-22 09:46:53 GMT 50.417908 8.403312 11,550 126 367 -1984
2018-09-22 09:46:49 GMT 50.421753 8.395188 11,650 126 371 -1984
2018-09-22 09:46:46 GMT 50.425186 8.387845 11,875 126 374 -1984
2018-09-22 09:46:43 GMT 50.428070 8.381701 11,875 126 374 -1984
2018-09-22 09:46:39 GMT 50.432739 8.371582 12,125 125 379 -2560
2018-09-22 09:46:35 GMT 50.436836 8.362674 12,225 125 379 -2688
2018-09-22 09:46:32 GMT 50.438885 8.358220 12,325 125 380 -2816
2018-09-22 09:46:29 GMT 50.446198 8.342671 12,600 127 383 -2432
2018-09-22 09:46:26 GMT 50.446198 8.342671 12,700 127 382 -2752
2018-09-22 09:46:23 GMT 50.448761 8.337394 12,775 126 386 -2240
2018-09-22 09:46:19 GMT 50.454525 8.325484 13,025 126 386 -2240
2018-09-22 09:46:15 GMT 50.457924 8.318283 13,075 125 386 -2176
2018-09-22 09:46:11 GMT 50.461555 8.309895 13,350 120 393 -2560
2018-09-22 09:46:08 GMT 50.464417 8.302628 13,650 119 395 -2432
2018-09-22 09:46:04 GMT 50.468307 8.291642 13,600 116 401 -1536
2018-09-22 09:46:01 GMT 50.470688 8.284414 13,750 116 407 -1536
2018-09-22 09:45:58 GMT 50.472977 8.277114 13,775 116 406 -1472
2018-09-22 09:45:55 GMT 50.475521 8.269216 13,775 116 407 -1536
2018-09-22 09:45:52 GMT 50.478058 8.261285 13,825 116 409 -1536
2018-09-22 09:45:47 GMT 50.482498 8.247408 15,950 116 439 -3136
2018-09-22 09:45:44 GMT 50.485291 8.238806 14,725 116 432 -2880
2018-09-22 09:45:41 GMT 50.488602 8.228463 14,175 116 422 -1728
2018-09-22 09:45:38 GMT 50.490742 8.221930 14,400 116 427 -2240
2018-09-22 09:45:34 GMT 50.493759 8.212569 14,375 117 428 -2432
2018-09-22 09:45:31 GMT 50.496643 8.203679 14,525 117 430 -2816
2018-09-22 09:45:28 GMT 50.499355 8.195355 14,700 117 431 -2880
2018-09-22 09:45:24 GMT 50.502823 8.184814 15,000 116 432 -2880
2018-09-22 09:45:20 GMT 50.506618 8.173086 15,175 116 433 -2688
2018-09-22 09:45:16 GMT 50.510250 8.161877 15,250 116 436 -2752
2018-09-22 09:45:13 GMT 50.514450 8.148892 15,400 116 437 -2816
2018-09-22 09:45:07 GMT 50.517929 8.138197 15,575 116 439 -3136
2018-09-22 09:45:04 GMT 50.521774 8.126269 15,775 116 438 -3072
2018-09-22 09:45:01 GMT 50.523972 8.119475 15,825 116 439 -3136
2018-09-22 09:44:57 GMT 50.527843 8.107539 16,425 116 439 -3264
2018-09-22 09:44:54 GMT 50.530407 8.099596 16,275 116 439 -3328
2018-09-22 09:44:51 GMT 50.533127 8.090997 16,425 116 440 -3392
2018-09-22 09:44:47 GMT 50.536968 8.079034 16,725 116 440 -3392
2018-09-22 09:44:44 GMT 50.539532 8.071017 16,950 116 441 -3392
2018-09-22 09:44:40 GMT 50.542603 8.061363 16,975 117 439 -4352
2018-09-22 09:44:37 GMT 50.546219 8.049871 17,450 116 441 -3392
2018-09-22 09:44:34 GMT 50.548050 8.044161 17,300 116 440 -3520
2018-09-22 09:44:31 GMT 50.551300 8.033825 17,525 116 440 -3904
2018-09-22 09:44:25 GMT 50.556614 8.017273 17,925 117 438 -4352
2018-09-22 09:44:22 GMT 50.559593 8.008217 18,325 118 440 -2176
2018-09-22 09:44:19 GMT 50.565079 7.991903 18,750 118 441 -2048
2018-09-22 09:44:16 GMT 50.565079 7.991903 18,425 118 442 -2048
2018-09-22 09:44:13 GMT 50.568344 7.982310 18,475 118 442 -2048
2018-09-22 09:44:10 GMT 50.571259 7.973761 18,725 117 454 -1664
2018-09-22 09:44:07 GMT 50.573746 7.966350 18,700 117 444 -2048
2018-09-22 09:44:03 GMT 50.578445 7.952078 18,875 117 444 -2048
2018-09-22 09:43:58 GMT 50.582405 7.939997 19,050 117 445 -2048
2018-09-22 09:43:55 GMT 50.585266 7.931406 19,300 117 446 -1792
2018-09-22 09:43:50 GMT 50.590736 7.914759 19,475 117 449 -1728
2018-09-22 09:43:47 GMT 50.592648 7.908969 19,500 117 447 -1728
2018-09-22 09:43:43 GMT 50.596416 7.897463 19,500 117 448 -1728
2018-09-22 09:43:40 GMT 50.599686 7.887605 19,625 117 451 -1728
2018-09-22 09:43:37 GMT 50.602936 7.877791 19,625 117 451 -1728
2018-09-22 09:43:34 GMT 50.604630 7.872571 19,775 117 463 -1728
2018-09-22 09:43:31 GMT 50.608841 7.859778 19,825 117 451 -1728
2018-09-22 09:43:25 GMT 50.614929 7.841058 20,000 117 453 -1728
2018-09-22 09:43:22 GMT 50.616669 7.835776 20,050 117 453 -1728
2018-09-22 09:43:19 GMT 50.623352 7.815255 20,200 117 455 -1664
2018-09-22 09:43:16 GMT 50.623352 7.815255 20,375 117 457 -1728
2018-09-22 09:43:13 GMT 50.625465 7.808755 20,325 117 456 -1728
2018-09-22 09:43:06 GMT 50.632278 7.788078 20,600 117 462 -1728
2018-09-22 09:43:02 GMT 50.635757 7.777381 20,700 117 460 -1728
2018-09-22 09:42:58 GMT 50.639648 7.765527 20,750 117 461 -1728
2018-09-22 09:42:55 GMT 50.643127 7.754758 20,825 117 464 -1728
2018-09-22 09:42:51 GMT 50.646240 7.745217 20,875 117 462 -1728
2018-09-22 09:42:48 GMT 50.649532 7.734969 21,025 117 466 -1728
2018-09-22 09:42:45 GMT 50.652512 7.725991 21,125 117 464 -1728
2018-09-22 09:42:42 GMT 50.655258 7.717606 21,175 117 469 -1728
2018-09-22 09:42:39 GMT 50.658237 7.708542 21,550 117 492 -1088
2018-09-22 09:42:36 GMT 50.661987 7.697152 21,375 117 467 -1728
2018-09-22 09:42:33 GMT 50.664780 7.688695 21,450 117 469 -1728
2018-09-22 09:42:29 GMT 50.667618 7.680238 21,600 117 473 -1664
2018-09-22 09:42:25 GMT 50.672203 7.666321 21,675 117 472 -1728
2018-09-22 09:42:22 GMT 50.676208 7.654114 21,775 117 472 -1728
2018-09-22 09:42:19 GMT 50.677597 7.649899 21,800 117 472 -1728
2018-09-22 09:42:16 GMT 50.685101 7.627258 21,975 117 474 -1664
2018-09-22 09:42:13 GMT 50.685101 7.627258 22,325 117 479 -1088
2018-09-22 09:42:09 GMT 50.688492 7.616792 22,125 117 476 -1408
2018-09-22 09:42:05 GMT 50.693390 7.602019 22,200 117 481 -1088
2018-09-22 09:42:02 GMT 50.696411 7.592773 22,325 117 499 -1344
2018-09-22 09:41:59 GMT 50.698460 7.586517 22,325 117 481 -1088
2018-09-22 09:41:55 GMT 50.702728 7.573440 22,400 117 489 -1088
2018-09-22 09:41:52 GMT 50.708702 7.555237 22,550 117 493 -1088
2018-09-22 09:41:49 GMT 50.708702 7.555237 22,450 117 487 -1024
2018-09-22 09:41:46 GMT 50.711166 7.547684 22,525 117 490 -1088
2018-09-22 09:41:43 GMT 50.714893 7.536316 22,550 117 492 -1088
2018-09-22 09:41:40 GMT 50.719254 7.522888 22,625 117 493 -1088
2018-09-22 09:41:36 GMT 50.722385 7.513275 22,725 117 500 -1536
2018-09-22 09:41:33 GMT 50.724949 7.505569 22,775 117 500 -1536
2018-09-22 09:41:30 GMT 50.729370 7.492082 23,000 116 502 -1920
2018-09-22 09:41:27 GMT 50.732300 7.482951 23,650 116 504 -2176
2018-09-22 09:41:24 GMT 50.734406 7.476493 23,300 116 504 -2176
2018-09-22 09:41:21 GMT 50.738617 7.463428 23,150 116 503 -2176
2018-09-22 09:41:18 GMT 50.741959 7.452962 23,175 116 504 -2176
2018-09-22 09:41:12 GMT 50.748276 7.433290 23,400 116 504 -2176
2018-09-22 09:41:09 GMT 50.750793 7.425422 23,500 116 504 -2176
2018-09-22 09:41:06 GMT 50.754593 7.413619 23,600 116 505 -2112
2018-09-22 09:41:03 GMT 50.757935 7.403078 23,700 116 506 -2112
2018-09-22 09:41:00 GMT 50.760235 7.395782 23,825 116 507 -2112
2018-09-22 09:40:57 GMT 50.763168 7.386551 24,000 116 507 -2112
2018-09-22 09:40:54 GMT 50.766472 7.375946 24,000 116 508 -2112
2018-09-22 09:40:51 GMT 50.770195 7.363968 24,075 116 508 -2112
2018-09-22 09:40:48 GMT 50.773727 7.352674 24,225 116 509 -2048
2018-09-22 09:40:45 GMT 50.776245 7.344732 24,375 116 509 -2048
2018-09-22 09:40:41 GMT 50.779953 7.332706 24,425 116 509 -2048
2018-09-22 09:40:37 GMT 50.785034 7.316746 24,775 119 510 -2176
2018-09-22 09:40:34 GMT 50.787842 7.308121 24,675 118 511 -2112
2018-09-22 09:40:29 GMT 50.793732 7.291953 25,100 126 511 -2176
2018-09-22 09:40:25 GMT 50.799454 7.278294 25,000 126 511 -2176
2018-09-22 09:40:22 GMT 50.803940 7.268718 25,125 135 508 -2112
2018-09-22 09:40:19 GMT 50.806599 7.263489 25,175 129 510 -2240
2018-09-22 09:40:16 GMT 50.812092 7.253265 25,325 133 508 -2176
2018-09-22 09:40:13 GMT 50.815910 7.246704 25,525 133 508 -2176
2018-09-22 09:40:10 GMT 50.821125 7.238159 25,725 135 508 -2112
2018-09-22 09:40:07 GMT 50.825779 7.230835 25,600 135 508 -2112
2018-09-22 09:40:04 GMT 50.833183 7.219467 25,750 135 509 -2112
2018-09-22 09:40:01 GMT 50.836212 7.214751 26,050 135 510 -2112
2018-09-22 09:39:58 GMT 50.842941 7.204359 25,975 135 510 -2112
2018-09-22 09:39:55 GMT 50.845642 7.200202 26,025 135 510 -2112
2018-09-22 09:39:52 GMT 50.852371 7.189809 26,150 135 511 -2112
2018-09-22 09:39:49 GMT 50.857773 7.181495 26,225 135 511 -2112
2018-09-22 09:39:46 GMT 50.863174 7.173107 26,325 135 511 -2112
2018-09-22 09:39:43 GMT 50.867249 7.166798 26,425 135 512 -2048
2018-09-22 09:39:40 GMT 50.871635 7.159958 26,600 135 513 -2048
2018-09-22 09:39:37 GMT 50.878384 7.149506 26,700 135 514 -2048
2018-09-22 09:39:34 GMT 50.883453 7.141559 26,800 135 515 -1984
2018-09-22 09:39:31 GMT 50.887527 7.135249 26,825 135 515 -1984
2018-09-22 09:39:28 GMT 50.891602 7.128865 27,025 135 515 -1984
2018-09-22 09:39:25 GMT 50.895676 7.122555 27,025 135 516 -1984
2018-09-22 09:39:22 GMT 50.901077 7.114093 27,200 135 516 -2048
2018-09-22 09:39:19 GMT 50.906876 7.105103 27,475 135 518 -2048
2018-09-22 09:39:16 GMT 50.914032 7.093976 27,325 135 518 -2112
2018-09-22 09:39:13 GMT 50.918152 7.087666 27,425 135 518 -2048
2018-09-22 09:39:10 GMT 50.928799 7.071304 27,675 135 519 -2048
2018-09-22 09:39:04 GMT 50.931545 7.067032 27,700 135 519 -2048
2018-09-22 09:39:01 GMT 50.937737 7.057495 28,075 135 519 -2048
2018-09-22 09:38:58 GMT 50.942871 7.049585 28,075 135 523 -960
2018-09-22 09:38:55 GMT 50.948025 7.041626 28,050 135 520 -2112
2018-09-22 09:38:52 GMT 50.955612 7.029877 28,225 135 519 -1920
2018-09-22 09:38:48 GMT 50.961758 7.020340 28,350 135 519 -1152
2018-09-22 09:38:45 GMT 50.966217 7.013360 28,400 135 519 -1024
2018-09-22 09:38:41 GMT 50.971664 7.004823 28,450 135 520 -960
2018-09-22 09:38:38 GMT 50.978191 6.994705 28,550 135 520 -960
2018-09-22 09:38:35 GMT 50.983685 6.986160 28,575 135 520 -1024
2018-09-22 09:38:32 GMT 50.988480 6.978683 28,600 135 520 -1024
2018-09-22 09:38:29 GMT 50.991879 6.973419 28,650 135 520 -1024
2018-09-22 09:38:26 GMT 50.997025 6.965406 28,725 135 521 -1024
2018-09-22 09:38:23 GMT 51.003204 6.955756 28,725 135 521 -1024
2018-09-22 09:38:20 GMT 51.009384 6.946106 28,800 135 521 -1024
2018-09-22 09:38:16 GMT 51.016598 6.934891 28,875 135 522 -1024
2018-09-22 09:38:13 GMT 51.022091 6.926270 28,900 135 522 -1024
2018-09-22 09:38:10 GMT 51.027584 6.917648 28,975 135 528 -960
2018-09-22 09:38:07 GMT 51.031029 6.912231 29,075 135 532 -960
2018-09-22 09:38:04 GMT 51.035870 6.904678 29,075 135 526 -1024
2018-09-22 09:38:01 GMT 51.042061 6.894913 29,125 135 526 -1024
2018-09-22 09:37:58 GMT 51.044807 6.890564 29,150 135 526 -960
2018-09-22 09:37:55 GMT 51.055527 6.873730 29,250 135 528 -960
2018-09-22 09:37:49 GMT 51.062126 6.863327 29,375 135 529 -960
2018-09-22 09:37:46 GMT 51.068024 6.854058 29,375 135 530 -960
2018-09-22 09:37:43 GMT 51.072552 6.846924 29,450 135 532 -960
2018-09-22 09:37:40 GMT 51.077396 6.839294 29,450 135 531 -960
2018-09-22 09:37:37 GMT 51.082283 6.831589 29,525 135 532 -960
2018-09-22 09:37:34 GMT 51.093109 6.814567 29,650 135 532 -960
2018-09-22 09:37:31 GMT 51.093109 6.814567 29,650 135 533 -960
2018-09-22 09:37:28 GMT 51.098343 6.806259 29,650 135 533 -960
2018-09-22 09:37:25 GMT 51.103230 6.798553 29,700 135 534 -960
2018-09-22 09:37:22 GMT 51.108166 6.790848 29,750 135 536 -1024
2018-09-22 09:37:19 GMT 51.114853 6.780420 29,875 135 536 -1024
2018-09-22 09:37:15 GMT 51.122589 6.768246 29,900 135 536 -1024
2018-09-22 09:37:12 GMT 51.133942 6.750653 29,975 135 538 -1024
2018-09-22 09:37:08 GMT 51.133942 6.750653 30,025 135 538 -1024
2018-09-22 09:37:05 GMT 51.137466 6.745086 30,125 135 538 -1024
2018-09-22 09:37:02 GMT 51.143829 6.735139 30,050 135 538 -1024
2018-09-22 09:36:59 GMT 51.151657 6.722890 30,175 135 540 -960
2018-09-22 09:36:56 GMT 51.154495 6.718437 30,300 135 540 -960
2018-09-22 09:36:53 GMT 51.159439 6.710642 30,250 135 540 -960
2018-09-22 09:36:50 GMT 51.170498 6.693344 30,350 135 542 -960
2018-09-22 09:36:44 GMT 51.175827 6.684958 30,450 135 542 -960
2018-09-22 09:36:41 GMT 51.181160 6.676559 30,450 135 542 -960
2018-09-22 09:36:37 GMT 51.189026 6.664276 30,500 135 543 -960
2018-09-22 09:36:34 GMT 51.195099 6.654746 30,575 135 543 -1024
2018-09-22 09:36:31 GMT 51.199036 6.648560 30,625 135 547 -1024
2018-09-22 09:36:28 GMT 51.205460 6.638412 30,925 135 545 -1024
2018-09-22 09:36:24 GMT 51.213684 6.625498 30,750 135 545 -1024
2018-09-22 09:36:21 GMT 51.217255 6.619857 31,000 135 550 -1024
2018-09-22 09:36:18 GMT 51.222290 6.611914 30,850 135 545 -1024
2018-09-22 09:36:15 GMT 51.229809 6.600037 30,875 135 547 -1024
2018-09-22 09:36:11 GMT 51.235886 6.590386 31,025 135 548 -1024
2018-09-22 09:36:07 GMT 51.241959 6.580734 31,025 135 548 -1024
2018-09-22 09:36:04 GMT 51.248795 6.569973 31,050 135 548 -1024
2018-09-22 09:36:01 GMT 51.253098 6.563143 31,125 135 549 -1024
2018-09-22 09:35:58 GMT 51.258865 6.554013 31,250 135 550 -1024
2018-09-22 09:35:55 GMT 51.263901 6.546070 31,200 135 550 -1024
2018-09-22 09:35:52 GMT 51.276169 6.526621 31,325 135 552 -1024
2018-09-22 09:35:49 GMT 51.276169 6.526621 31,350 135 551 -1024
2018-09-22 09:35:43 GMT 51.284821 6.512888 31,500 135 552 -1024
2018-09-22 09:35:40 GMT 51.292419 6.500854 31,475 135 552 -1024
2018-09-22 09:35:37 GMT 51.296749 6.493988 31,575 135 552 -1024
2018-09-22 09:35:34 GMT 51.302902 6.484235 31,575 135 552 -1024
2018-09-22 09:35:31 GMT 51.308338 6.475677 31,650 135 552 -1024
2018-09-22 09:35:28 GMT 51.313797 6.467087 31,725 135 552 -1024
2018-09-22 09:35:25 GMT 51.317791 6.460800 31,725 135 552 -1024
2018-09-22 09:35:22 GMT 51.323959 6.451053 31,775 135 555 -1024
2018-09-22 09:35:19 GMT 51.329384 6.442413 31,800 135 552 -1024
2018-09-22 09:35:16 GMT 51.336273 6.431530 31,850 135 552 -1024
2018-09-22 09:35:13 GMT 51.341354 6.423513 32,150 134 559 -1024
2018-09-22 09:35:10 GMT 51.347538 6.413727 31,975 135 553 -1024
2018-09-22 09:35:07 GMT 51.351170 6.407928 32,200 134 556 -1024
2018-09-22 09:35:04 GMT 51.357330 6.398126 32,150 134 559 -1024
2018-09-22 09:35:00 GMT 51.363144 6.388847 32,125 135 555 -1088
2018-09-22 09:34:57 GMT 51.375095 6.369705 32,300 134 560 -1024
2018-09-22 09:34:54 GMT 51.380917 6.360397 32,275 134 557 -1024
2018-09-22 09:34:51 GMT 51.380917 6.360397 32,325 134 557 -1024
2018-09-22 09:34:48 GMT 51.385246 6.353455 32,350 134 558 -1024
2018-09-22 09:34:44 GMT 51.392166 6.342303 32,500 134 562 -1024
2018-09-22 09:34:41 GMT 51.399445 6.330575 32,475 134 560 -1024
2018-09-22 09:34:38 GMT 51.405258 6.321221 32,525 134 561 -1024
2018-09-22 09:34:34 GMT 51.410011 6.313553 32,700 134 563 -1024
2018-09-22 09:34:31 GMT 51.422104 6.294127 32,625 134 563 -1024
2018-09-22 09:34:25 GMT 51.426861 6.286392 32,750 134 566 -1024
2018-09-22 09:34:22 GMT 51.434601 6.273936 32,775 134 566 -1024
2018-09-22 09:34:19 GMT 51.439041 6.266809 32,850 134 569 -960
2018-09-22 09:34:16 GMT 51.445679 6.256120 32,900 135 584 -960
2018-09-22 09:34:13 GMT 51.449387 6.250107 33,100 134 573 -960
2018-09-22 09:34:10 GMT 51.456425 6.238785 32,975 134 571 -960
2018-09-22 09:34:07 GMT 51.460464 6.232143 33,000 134 571 -960
2018-09-22 09:34:03 GMT 51.468658 6.218930 33,125 134 573 -960
2018-09-22 09:34:00 GMT 51.473507 6.211090 33,175 134 574 -960
2018-09-22 09:33:57 GMT 51.477978 6.203918 33,175 134 574 -960
2018-09-22 09:33:54 GMT 51.485825 6.191241 33,225 134 574 -960
2018-09-22 09:33:51 GMT 51.491428 6.182175 33,325 134 575 -960
2018-09-22 09:33:48 GMT 51.495575 6.175578 33,325 134 575 -960
2018-09-22 09:33:45 GMT 51.501160 6.166534 33,375 134 576 -960
2018-09-22 09:33:42 GMT 51.508301 6.155016 33,575 134 576 -960
2018-09-22 09:33:39 GMT 51.513565 6.146554 33,475 134 577 -1024
2018-09-22 09:33:36 GMT 51.518051 6.139279 33,550 134 577 -1024
2018-09-22 09:33:33 GMT 51.525925 6.126556 33,650 134 577 -1024
2018-09-22 09:33:30 GMT 51.530441 6.119232 33,725 134 577 -1088
2018-09-22 09:33:27 GMT 51.535309 6.111368 34,175 135 584 -960
2018-09-22 09:33:24 GMT 51.541660 6.100998 33,750 134 578 -1088
2018-09-22 09:33:21 GMT 51.546570 6.093032 33,775 134 580 -1088
2018-09-22 09:33:18 GMT 51.553299 6.082120 33,875 134 579 -1024
2018-09-22 09:33:15 GMT 51.559677 6.071701 33,925 134 580 -1024
2018-09-22 09:33:12 GMT 51.563095 6.066160 34,000 134 581 -1024
2018-09-22 09:33:09 GMT 51.576294 6.044769 34,000 134 581 -1024
2018-09-22 09:33:06 GMT 51.576294 6.044769 34,050 135 582 -1024
2018-09-22 09:33:03 GMT 51.580490 6.038101 34,275 115 605 -960
2018-09-22 09:33:00 GMT 51.585464 6.030121 34,125 135 584 -1024
2018-09-22 09:32:57 GMT 51.592758 6.018578 34,225 135 586 -1024
2018-09-22 09:32:54 GMT 51.597755 6.010590 34,300 134 588 -1024
2018-09-22 09:32:51 GMT 51.604645 5.999527 34,300 132 590 -1024
2018-09-22 09:32:48 GMT 51.609161 5.991974 34,375 132 590 -1024
2018-09-22 09:32:45 GMT 51.619812 5.973148 34,725 118 603 -960
2018-09-22 09:32:42 GMT 51.625488 5.962384 34,550 130 593 -960
2018-09-22 09:32:39 GMT 51.625488 5.962384 34,525 128 595 -1024
2018-09-22 09:32:36 GMT 51.632355 5.948577 34,525 127 597 -960
2018-09-22 09:32:33 GMT 51.636673 5.939331 34,650 126 597 -960
2018-09-22 09:32:30 GMT 51.640537 5.930710 34,650 124 599 -960
2018-09-22 09:32:27 GMT 51.645565 5.919037 34,725 122 600 -1024
2018-09-22 09:32:24 GMT 51.650162 5.907898 34,750 121 600 -1024
2018-09-22 09:32:21 GMT 51.654831 5.895798 34,800 121 601 -960
2018-09-22 09:32:18 GMT 51.659912 5.881991 34,825 120 601 -1024
2018-09-22 09:32:15 GMT 51.666840 5.862579 34,950 119 602 -960
2018-09-22 09:32:12 GMT 51.666840 5.862579 35,000 119 602 -960
2018-09-22 09:32:09 GMT 51.670944 5.850888 35,000 118 603 -960
2018-09-22 09:32:06 GMT 51.676010 5.835953 35,050 118 603 -960
2018-09-22 09:32:03 GMT 51.679916 5.824090 35,100 116 603 -960
2018-09-22 09:32:00 GMT 51.687321 5.801010 35,175 116 603 -960
2018-09-22 09:31:57 GMT 51.687321 5.801010 35,225 116 603 -960
2018-09-22 09:31:54 GMT 51.691040 5.788978 35,250 116 604 -960
2018-09-22 09:31:51 GMT 51.694977 5.776062 35,300 116 604 -960
2018-09-22 09:31:48 GMT 51.697449 5.768045 35,525 115 605 -960
2018-09-22 09:31:45 GMT 51.705780 5.740579 35,400 116 604 -960
2018-09-22 09:31:42 GMT 51.705780 5.740579 35,450 115 605 -960
2018-09-22 09:31:39 GMT 51.708969 5.730057 35,500 115 606 -960
2018-09-22 09:31:36 GMT 51.711903 5.720367 35,550 115 605 -1024
2018-09-22 09:31:33 GMT 51.716789 5.704193 35,575 115 606 -960
2018-09-22 09:31:30 GMT 51.719212 5.696106 35,600 115 606 -1024
2018-09-22 09:31:27 GMT 51.723358 5.682307 35,700 115 606 -960
2018-09-22 09:31:24 GMT 51.727032 5.670166 35,800 115 606 -1024
2018-09-22 09:31:20 GMT 51.733109 5.649868 35,825 115 606 -1024
2018-09-22 09:31:17 GMT 51.735535 5.641776 35,850 115 606 -1024
2018-09-22 09:31:14 GMT 51.739693 5.627975 35,900 115 606 -960
2018-09-22 09:31:11 GMT 51.746490 5.605240 36,175 115 606 -960
2018-09-22 09:31:08 GMT 51.746490 5.605240 36,025 115 606 -960
2018-09-22 09:31:05 GMT 51.751377 5.588989 36,075 115 606 -1024
2018-09-22 09:31:02 GMT 51.754311 5.579224 36,100 115 606 -960
2018-09-22 09:30:59 GMT 51.758423 5.565392 36,150 115 606 -960
2018-09-22 09:30:56 GMT 51.761108 5.556488 36,200 115 606 -960
2018-09-22 09:30:53 GMT 51.765949 5.540237 36,300 115 605 -960
2018-09-22 09:30:50 GMT 51.768833 5.530472 36,300 115 605 -960
2018-09-22 09:30:47 GMT 51.771973 5.519962 36,475 115 604 -960
2018-09-22 09:30:44 GMT 51.775864 5.506971 36,400 115 604 -960
2018-09-22 09:30:41 GMT 51.783096 5.482623 36,475 115 604 -960
2018-09-22 09:30:38 GMT 51.783096 5.482623 36,500 115 605 -1024
2018-09-22 09:30:34 GMT 51.791553 5.454254 36,575 115 605 -960
2018-09-22 09:30:31 GMT 51.791553 5.454254 36,625 115 605 -960
2018-09-22 09:30:28 GMT 51.794724 5.443726 36,650 115 605 -960
2018-09-22 09:30:25 GMT 51.798347 5.431519 36,675 115 605 -1024
2018-09-22 09:30:21 GMT 51.804382 5.411212 36,850 115 606 -1088
2018-09-22 09:30:18 GMT 51.811848 5.385971 36,850 115 606 -1088
2018-09-22 09:30:15 GMT 51.811848 5.385971 36,925 115 606 -448
2018-09-22 09:30:12 GMT 51.815002 5.375358 36,925 115 606 -896
2018-09-22 09:30:09 GMT 51.818344 5.364000 36,975 115 605 -640
2018-09-22 09:30:06 GMT 51.822189 5.350936 37,000 115 606 -128
2018-09-22 09:30:03 GMT 51.829166 5.327377 37,000 115 605 0
2018-09-22 09:30:00 GMT 51.829166 5.327377 37,000 115 604 0
2018-09-22 09:29:57 GMT 51.831345 5.320055 37,000 115 604 0
2018-09-22 09:29:54 GMT 51.836384 5.302963 37,000 115 604 0
2018-09-22 09:29:51 GMT 51.844063 5.276947 37,000 115 603 0
2018-09-22 09:29:47 GMT 51.844063 5.276947 37,000 115 604 0
2018-09-22 09:29:44 GMT 51.849106 5.259853 37,000 115 604 0
2018-09-22 09:29:41 GMT 51.852951 5.246862 37,000 115 604 0
2018-09-22 09:29:38 GMT 51.855377 5.238697 37,000 115 603 0
2018-09-22 09:29:35 GMT 51.859222 5.225706 37,000 115 603 0
2018-09-22 09:29:32 GMT 51.863525 5.211083 37,000 115 604 64
2018-09-22 09:29:29 GMT 51.866409 5.201284 37,000 115 604 0
2018-09-22 09:29:26 GMT 51.870972 5.185852 37,000 115 604 0
2018-09-22 09:29:23 GMT 51.875519 5.170404 37,000 115 604 0
2018-09-22 09:29:20 GMT 51.881493 5.150070 37,000 115 604 0
2018-09-22 09:29:16 GMT 51.881493 5.150070 37,000 115 604 0
2018-09-22 09:29:13 GMT 51.885086 5.137816 37,000 115 604 0
2018-09-22 09:29:10 GMT 51.888885 5.124825 37,000 115 604 0
2018-09-22 09:29:07 GMT 51.892273 5.113393 37,000 115 604 0
2018-09-22 09:29:04 GMT 51.895828 5.101188 37,000 115 604 0
2018-09-22 09:29:01 GMT 51.899414 5.088959 37,000 115 604 0
2018-09-22 09:28:58 GMT 51.906349 5.065325 36,975 115 604 64
2018-09-22 09:28:55 GMT 51.906349 5.065325 36,975 115 603 0
2018-09-22 09:28:52 GMT 51.909897 5.053177 37,000 115 604 0
2018-09-22 09:28:49 GMT 51.914703 5.036850 37,000 115 604 0
2018-09-22 09:28:46 GMT 51.918503 5.023804 37,000 115 604 0
2018-09-22 09:28:43 GMT 51.921387 5.014038 37,000 115 603 0
2018-09-22 09:28:40 GMT 51.924973 5.001840 37,000 115 604 64
2018-09-22 09:28:37 GMT 51.927811 4.992031 36,975 115 604 64
2018-09-22 09:28:34 GMT 51.930908 4.981461 36,975 115 604 64
2018-09-22 09:28:31 GMT 51.935211 4.966736 36,975 115 603 0
2018-09-22 09:28:28 GMT 51.938332 4.956168 36,975 115 603 0
2018-09-22 09:28:25 GMT 51.943081 4.939845 36,975 115 603 0
2018-09-22 09:28:22 GMT 51.946430 4.928388 36,975 115 603 0
2018-09-22 09:28:19 GMT 51.950714 4.913714 36,975 115 603 0
2018-09-22 09:28:16 GMT 51.953552 4.903905 36,975 115 603 0
2018-09-22 09:28:13 GMT 51.957138 4.891663 36,975 115 603 0
2018-09-22 09:28:10 GMT 51.959747 4.882717 36,975 115 604 64
2018-09-22 09:28:06 GMT 51.964027 4.868042 36,975 115 603 0
2018-09-22 09:28:03 GMT 51.972382 4.839401 36,975 115 604 64
2018-09-22 09:28:00 GMT 51.972382 4.839401 36,975 115 604 64
2018-09-22 09:27:57 GMT 51.975479 4.828805 36,975 115 604 64
2018-09-22 09:27:54 GMT 51.979477 4.814911 36,975 115 604 64
2018-09-22 09:27:51 GMT 51.987305 4.787920 36,975 115 604 64
2018-09-22 09:27:48 GMT 51.987305 4.787920 36,975 115 604 64
2018-09-22 09:27:44 GMT 51.991333 4.774017 36,975 115 604 64
2018-09-22 09:27:41 GMT 51.994171 4.764252 36,975 115 604 64
2018-09-22 09:27:38 GMT 51.998932 4.747849 36,975 115 604 64
2018-09-22 09:27:35 GMT 52.005112 4.726562 36,950 115 605 64
2018-09-22 09:27:32 GMT 52.008671 4.714233 36,975 114 605 0
2018-09-22 09:27:29 GMT 52.008671 4.714233 36,975 115 605 0
2018-09-22 09:27:26 GMT 52.013168 4.698715 36,975 114 605 0
2018-09-22 09:27:23 GMT 52.016212 4.688023 36,975 115 604 0
2018-09-22 09:27:20 GMT 52.019520 4.676566 36,975 114 605 0
2018-09-22 09:27:17 GMT 52.023560 4.662628 36,975 114 605 0
2018-09-22 09:27:14 GMT 52.026642 4.651925 36,975 114 605 0
2018-09-22 09:27:11 GMT 52.030876 4.637172 36,975 114 605 0
2018-09-22 09:27:08 GMT 52.034409 4.624863 36,975 114 605 0
2018-09-22 09:27:05 GMT 52.038208 4.611664 36,975 114 605 0
2018-09-22 09:27:02 GMT 52.040329 4.604292 36,975 114 605 0
2018-09-22 09:26:59 GMT 52.049011 4.573898 36,975 114 605 0
2018-09-22 09:26:56 GMT 52.049011 4.573898 36,975 114 605 0
2018-09-22 09:26:53 GMT 52.052525 4.561523 36,975 114 605 0
2018-09-22 09:26:50 GMT 52.056061 4.549179 36,975 114 606 0
2018-09-22 09:26:47 GMT 52.058205 4.541827 36,975 114 606 -64
2018-09-22 09:26:44 GMT 52.062904 4.525347 36,975 114 606 0
2018-09-22 09:26:41 GMT 52.066677 4.512163 36,975 114 606 0
2018-09-22 09:26:38 GMT 52.068539 4.505572 36,975 114 606 0
2018-09-22 09:26:35 GMT 52.076080 4.479204 36,975 114 606 0
2018-09-22 09:26:32 GMT 52.076080 4.479204 36,975 114 606 0
2018-09-22 09:26:29 GMT 52.079384 4.467669 36,975 114 607 0
2018-09-22 09:26:26 GMT 52.084305 4.450378 36,975 114 606 0
2018-09-22 09:26:23 GMT 52.087601 4.438782 36,975 114 606 0
2018-09-22 09:26:20 GMT 52.094002 4.416582 36,975 114 606 0
2018-09-22 09:26:17 GMT 52.094002 4.416582 36,975 114 606 0
2018-09-22 09:26:14 GMT 52.097992 4.402542 36,975 114 606 0
2018-09-22 09:26:11 GMT 52.100613 4.393433 36,975 114 606 0
2018-09-22 09:26:08 GMT 52.105087 4.377747 36,975 114 606 0
2018-09-22 09:26:05 GMT 52.107468 4.369507 36,975 114 607 0
2018-09-22 09:26:02 GMT 52.110992 4.357178 36,975 114 607 0
2018-09-22 09:25:59 GMT 52.115936 4.339828 37,000 114 607 -64
2018-09-22 09:25:56 GMT 52.119232 4.328232 37,000 114 607 -64
2018-09-22 09:25:53 GMT 52.122772 4.315822 37,000 114 606 -64
2018-09-22 09:25:50 GMT 52.126282 4.303436 37,000 114 607 -64
2018-09-22 09:25:47 GMT 52.129074 4.293518 37,000 114 607 -64
2018-09-22 09:25:44 GMT 52.132370 4.281921 37,000 114 607 -64
2018-09-22 09:25:41 GMT 52.137295 4.264579 37,000 114 607 -64
2018-09-22 09:25:38 GMT 52.142212 4.247208 37,000 114 607 -64
2018-09-22 09:25:32 GMT 52.147339 4.228973 37,000 114 608 0
2018-09-22 09:25:29 GMT 52.150375 4.218201 37,000 114 608 0
2018-09-22 09:25:26 GMT 52.153637 4.206587 37,000 114 608 0
2018-09-22 09:25:23 GMT 52.157135 4.194107 37,000 114 608 0
2018-09-22 09:25:20 GMT 52.161594 4.178336 37,000 114 608 0
2018-09-22 09:25:17 GMT 52.163681 4.170914 37,000 114 608 0
2018-09-22 09:25:14 GMT 52.167648 4.156756 37,000 114 608 0
2018-09-22 09:25:11 GMT 52.171371 4.143494 37,000 114 608 0
2018-09-22 09:25:08 GMT 52.175858 4.127731 37,000 114 608 0
2018-09-22 09:25:05 GMT 52.179379 4.115322 37,025 114 609 -64
2018-09-22 09:25:02 GMT 52.181946 4.106140 37,025 114 610 0
2018-09-22 09:24:59 GMT 52.185898 4.092015 37,000 114 608 0
2018-09-22 09:24:56 GMT 52.192459 4.068787 37,025 114 608 0
2018-09-22 09:24:53 GMT 52.195496 4.057999 37,025 114 610 0
2018-09-22 09:24:50 GMT 52.195496 4.057999 37,025 114 609 -64
2018-09-22 09:24:47 GMT 52.200165 4.041367 37,025 114 609 0
2018-09-22 09:24:44 GMT 52.203213 4.030570 37,025 114 609 -64
2018-09-22 09:24:41 GMT 52.206005 4.020525 37,025 114 609 -64
2018-09-22 09:24:38 GMT 52.210419 4.004745 37,025 114 609 0
2018-09-22 09:24:35 GMT 52.213715 3.993073 37,025 114 609 0
2018-09-22 09:24:32 GMT 52.220486 3.968890 37,025 114 609 0
2018-09-22 09:24:29 GMT 52.220486 3.968890 37,025 114 609 0
2018-09-22 09:24:26 GMT 52.223969 3.956451 37,025 114 609 0
2018-09-22 09:24:23 GMT 52.227982 3.942287 37,025 114 609 0
2018-09-22 09:24:19 GMT 52.233353 3.923111 37,050 114 611 0
2018-09-22 09:24:16 GMT 52.235687 3.914719 37,050 114 609 0
2018-09-22 09:24:12 GMT 52.240356 3.898087 37,050 114 609 0
2018-09-22 09:24:09 GMT 52.244110 3.884659 37,050 114 609 0
2018-09-22 09:24:05 GMT 52.247578 3.872131 37,050 114 609 0
2018-09-22 09:24:01 GMT 52.252991 3.852921 37,050 114 610 0
2018-09-22 09:23:58 GMT 52.257401 3.837054 37,050 114 610 0
2018-09-22 09:23:55 GMT 52.259773 3.828735 37,050 114 610 0
2018-09-22 09:23:52 GMT 52.264431 3.812020 37,050 114 610 0
2018-09-22 09:23:48 GMT 52.267914 3.799438 37,050 114 611 0
2018-09-22 09:23:45 GMT 52.272583 3.782730 37,050 114 611 0
2018-09-22 09:23:42 GMT 52.276115 3.770115 37,050 114 611 0
2018-09-22 09:23:39 GMT 52.278671 3.760910 37,050 114 611 0
2018-09-22 09:23:36 GMT 52.286133 3.734055 37,050 114 611 0
2018-09-22 09:23:33 GMT 52.286133 3.734055 37,050 114 612 0
2018-09-22 09:23:30 GMT 52.288467 3.725662 37,050 114 612 0
2018-09-22 09:23:27 GMT 52.291943 3.713065 37,050 114 612 0
2018-09-22 09:23:24 GMT 52.296131 3.697998 37,050 114 612 0
2018-09-22 09:23:21 GMT 52.300095 3.683701 37,050 114 612 0
2018-09-22 09:23:16 GMT 52.304764 3.666916 37,050 114 611 0
2018-09-22 09:23:13 GMT 52.308701 3.652640 37,050 114 611 0
2018-09-22 09:23:10 GMT 52.312180 3.640060 37,050 114 611 0
2018-09-22 09:23:07 GMT 52.314972 3.629990 37,050 114 611 0
2018-09-22 09:23:04 GMT 52.319828 3.612305 37,050 114 611 0
2018-09-22 09:23:01 GMT 52.325787 3.590489 37,050 114 611 64
2018-09-22 09:22:53 GMT 52.336166 3.552628 37,050 114 610 128
2018-09-22 09:22:50 GMT 52.336166 3.552628 37,050 114 610 128
2018-09-22 09:22:46 GMT 52.340542 3.536734 37,050 114 610 128
2018-09-22 09:22:43 GMT 52.343334 3.526611 37,025 114 610 128
2018-09-22 09:22:40 GMT 52.347702 3.510666 37,025 114 610 128
2018-09-22 09:22:37 GMT 52.350037 3.502274 37,025 114 610 64
2018-09-22 09:22:34 GMT 52.357162 3.476231 37,000 114 610 128
2018-09-22 09:22:28 GMT 52.360374 3.464460 37,000 114 610 128
2018-09-22 09:22:25 GMT 52.364273 3.450165 37,000 114 610 128
2018-09-22 09:22:22 GMT 52.367523 3.438416 37,000 114 610 64
2018-09-22 09:22:19 GMT 52.371872 3.422477 37,000 114 610 64
2018-09-22 09:22:15 GMT 52.376015 3.407410 36,975 113 608 64
2018-09-22 09:22:12 GMT 52.378967 3.396454 37,000 114 608 64
2018-09-22 09:22:09 GMT 52.385376 3.372955 36,975 113 608 64
2018-09-22 09:22:03 GMT 52.389954 3.356171 36,975 113 608 64
2018-09-22 09:22:00 GMT 52.392654 3.346176 36,975 113 607 0
2018-09-22 09:21:57 GMT 52.396080 3.333566 36,975 113 605 0
2018-09-22 09:21:53 GMT 52.400391 3.317642 36,975 113 607 0
2018-09-22 09:21:50 GMT 52.404739 3.301705 36,975 113 607 0
2018-09-22 09:21:47 GMT 52.407440 3.291661 36,975 113 607 0
2018-09-22 09:21:43 GMT 52.411743 3.275757 36,975 113 605 0
2018-09-22 09:21:40 GMT 52.416275 3.259048 36,975 113 605 0
2018-09-22 09:21:37 GMT 52.420101 3.244812 36,975 113 603 0
2018-09-22 09:21:33 GMT 52.423508 3.232269 36,950 113 603 64
2018-09-22 09:21:30 GMT 52.426895 3.219779 36,975 113 604 0
2018-09-22 09:21:27 GMT 52.433441 3.195572 36,975 113 604 0
2018-09-22 09:21:24 GMT 52.433441 3.195572 36,975 113 603 0
2018-09-22 09:21:21 GMT 52.436859 3.183053 36,975 113 603 0
2018-09-22 09:21:18 GMT 52.440262 3.170547 36,975 113 603 0
2018-09-22 09:21:15 GMT 52.443657 3.158020 36,975 113 603 0
2018-09-22 09:21:12 GMT 52.447952 3.142242 36,975 113 603 0
2018-09-22 09:21:08 GMT 52.451336 3.129691 36,975 113 603 64
2018-09-22 09:21:05 GMT 52.454727 3.117218 36,950 113 603 0
2018-09-22 09:21:02 GMT 52.458553 3.103010 36,950 113 603 64
2018-09-22 09:20:59 GMT 52.461674 3.091396 36,950 113 603 0
2018-09-22 09:20:56 GMT 52.465073 3.078842 36,950 113 603 0
2018-09-22 09:20:52 GMT 52.470657 3.058044 36,975 113 603 0
2018-09-22 09:20:49 GMT 52.473587 3.047180 36,950 113 602 0
2018-09-22 09:20:46 GMT 52.476475 3.036307 36,950 113 602 0
2018-09-22 09:20:43 GMT 52.479595 3.024693 36,950 113 602 0
2018-09-22 09:20:40 GMT 52.482971 3.012161 36,950 113 602 0
2018-09-22 09:20:37 GMT 52.487183 2.996286 36,950 113 603 0
2018-09-22 09:20:33 GMT 52.490768 2.982867 36,950 113 603 0
2018-09-22 09:20:29 GMT 52.494965 2.966995 36,950 113 603 -64
2018-09-22 09:20:26 GMT 52.498535 2.953644 36,950 113 603 -64
2018-09-22 09:20:23 GMT 52.501190 2.943573 36,950 113 603 0
2018-09-22 09:20:19 GMT 52.507668 2.919303 37,000 113 603 -64
2018-09-22 09:20:16 GMT 52.511032 2.906799 36,950 113 604 -64
2018-09-22 09:20:13 GMT 52.513275 2.898407 36,975 113 604 -64
2018-09-22 09:20:09 GMT 52.518837 2.877476 36,975 113 604 -128
2018-09-22 09:20:06 GMT 52.521744 2.866592 36,975 113 604 -128
2018-09-22 09:20:03 GMT 52.524902 2.854843 36,975 113 604 -64
2018-09-22 09:20:00 GMT 52.527824 2.843968 36,975 113 604 -64
2018-09-22 09:19:57 GMT 52.530941 2.832197 36,975 113 604 -64
2018-09-22 09:19:54 GMT 52.535202 2.816315 36,975 113 604 -64
2018-09-22 09:19:51 GMT 52.537033 2.809601 37,000 113 604 -64
2018-09-22 09:19:48 GMT 52.541275 2.793666 37,000 113 604 -64
2018-09-22 09:19:45 GMT 52.545547 2.777710 37,000 113 605 -64
2018-09-22 09:19:42 GMT 52.547333 2.770996 37,000 113 605 -64
2018-09-22 09:19:39 GMT 52.550903 2.757568 37,000 113 605 -64
2018-09-22 09:19:35 GMT 52.556080 2.738264 37,000 113 605 -64
2018-09-22 09:19:31 GMT 52.559875 2.723923 37,000 113 605 -64
2018-09-22 09:19:28 GMT 52.563667 2.709621 37,000 113 606 -64
2018-09-22 09:19:25 GMT 52.567673 2.694475 37,000 113 606 -64
2018-09-22 09:19:22 GMT 52.571255 2.680978 37,000 113 606 -64
2018-09-22 09:19:19 GMT 52.576355 2.661591 37,000 113 606 -64
2018-09-22 09:19:13 GMT 52.580383 2.646408 37,025 113 606 -64
2018-09-22 09:19:10 GMT 52.583733 2.633815 37,025 113 606 -64
2018-09-22 09:19:06 GMT 52.587936 2.617722 37,025 113 606 -64
2018-09-22 09:19:03 GMT 52.591274 2.605094 37,050 113 607 0
2018-09-22 09:19:00 GMT 52.598557 2.577209 37,050 113 607 0
2018-09-22 09:18:57 GMT 52.598557 2.577209 37,050 113 607 -64
2018-09-22 09:18:54 GMT 52.601887 2.564523 37,050 113 607 -64
2018-09-22 09:18:51 GMT 52.604588 2.554321 37,050 113 607 -64
2018-09-22 09:18:48 GMT 52.608353 2.539978 37,050 113 607 -64
2018-09-22 09:18:44 GMT 52.613251 2.521362 37,050 113 608 -64
2018-09-22 09:18:38 GMT 52.619717 2.496800 37,050 113 609 0
2018-09-22 09:18:35 GMT 52.623505 2.482376 37,050 113 610 0
2018-09-22 09:18:32 GMT 52.625290 2.475586 37,050 113 609 0
2018-09-22 09:18:29 GMT 52.630188 2.456970 37,050 113 609 0
2018-09-22 09:18:26 GMT 52.632656 2.447597 37,050 113 610 0
2018-09-22 09:18:23 GMT 52.637127 2.430647 37,050 113 610 0
2018-09-22 09:18:20 GMT 52.640488 2.417908 37,050 113 610 0
2018-09-22 09:18:17 GMT 52.642731 2.409439 37,050 113 610 0
2018-09-22 09:18:14 GMT 52.647171 2.392426 37,050 113 610 0
2018-09-22 09:18:11 GMT 52.652351 2.372890 37,050 113 610 0
2018-09-22 09:18:05 GMT 52.656818 2.355861 37,050 113 612 0
2018-09-22 09:18:02 GMT 52.659473 2.345660 37,050 113 610 64
2018-09-22 09:17:59 GMT 52.662827 2.332916 37,050 113 611 64
2018-09-22 09:17:56 GMT 52.666176 2.320156 37,050 113 610 64
2018-09-22 09:17:53 GMT 52.672413 2.296221 37,050 113 612 0
2018-09-22 09:17:47 GMT 52.675999 2.282567 37,050 113 612 64
2018-09-22 09:17:44 GMT 52.679352 2.269821 37,050 113 611 0
2018-09-22 09:17:41 GMT 52.682877 2.256165 37,050 113 612 0
2018-09-22 09:17:38 GMT 52.686661 2.241603 37,050 113 612 64
2018-09-22 09:17:35 GMT 52.688892 2.233050 37,050 113 612 0
2018-09-22 09:17:32 GMT 52.692432 2.219395 37,075 113 612 0
2018-09-22 09:17:29 GMT 52.695740 2.206573 37,050 113 612 0
2018-09-22 09:17:26 GMT 52.700394 2.188634 37,075 113 612 0
2018-09-22 09:17:23 GMT 52.703705 2.175751 37,050 113 612 64
2018-09-22 09:17:20 GMT 52.705948 2.167206 37,050 112 611 0
2018-09-22 09:17:17 GMT 52.709282 2.154419 37,050 113 612 64
2018-09-22 09:17:14 GMT 52.712585 2.141571 37,050 113 612 128
2018-09-22 09:17:11 GMT 52.716568 2.126160 37,050 113 612 64
2018-09-22 09:17:08 GMT 52.719223 2.115936 37,050 113 612 128
2018-09-22 09:17:05 GMT 52.722748 2.102203 37,050 113 612 64
2018-09-22 09:17:02 GMT 52.726974 2.085990 37,050 113 612 64
2018-09-22 09:16:59 GMT 52.729626 2.075710 37,025 113 612 128
2018-09-22 09:16:56 GMT 52.736702 2.048244 37,025 113 612 64
2018-09-22 09:16:53 GMT 52.736702 2.048244 37,025 113 612 64
2018-09-22 09:16:50 GMT 52.738892 2.039690 37,025 113 612 64
2018-09-22 09:16:47 GMT 52.742893 2.024309 37,025 113 612 64
2018-09-22 09:16:44 GMT 52.746185 2.011490 37,025 113 612 64
2018-09-22 09:16:40 GMT 52.750389 1.995196 37,025 112 612 64
2018-09-22 09:16:37 GMT 52.753510 1.983189 37,025 112 611 64
2018-09-22 09:16:34 GMT 52.757885 1.966082 37,025 113 611 64
2018-09-22 09:16:31 GMT 52.760330 1.956635 37,025 112 612 64
2018-09-22 09:16:28 GMT 52.763611 1.943795 37,025 112 612 64
2018-09-22 09:16:25 GMT 52.766682 1.931789 37,025 112 612 64
2018-09-22 09:16:22 GMT 52.770172 1.918056 37,000 112 612 64
2018-09-22 09:16:18 GMT 52.775665 1.896591 37,000 112 612 64
2018-09-22 09:16:15 GMT 52.778088 1.887137 37,000 112 612 64
2018-09-22 09:16:12 GMT 52.781845 1.872559 37,000 112 612 64
2018-09-22 09:16:08 GMT 52.786240 1.855392 37,000 113 612 64
2018-09-22 09:16:04 GMT 52.790005 1.840838 37,000 113 612 0
2018-09-22 09:16:00 GMT 52.795074 1.821136 37,000 113 612 0
2018-09-22 09:15:57 GMT 52.798431 1.808271 37,000 113 612 0
2018-09-22 09:15:54 GMT 52.800617 1.799717 37,000 112 611 64
2018-09-22 09:15:51 GMT 52.804157 1.785985 37,000 112 612 0
2018-09-22 09:15:48 GMT 52.807278 1.773978 37,000 112 611 0
2018-09-22 09:15:45 GMT 52.814484 1.745605 37,000 112 612 0
2018-09-22 09:15:42 GMT 52.814484 1.745605 36,975 112 612 0
2018-09-22 09:15:39 GMT 52.818420 1.730118 36,975 112 611 64
2018-09-22 09:15:36 GMT 52.821239 1.718968 36,975 112 611 0
2018-09-22 09:15:33 GMT 52.823849 1.708609 36,975 112 611 0
2018-09-22 09:15:30 GMT 52.827293 1.694798 36,975 112 611 0
2018-09-22 09:15:27 GMT 52.830139 1.683655 36,975 112 611 0
2018-09-22 09:15:24 GMT 52.834442 1.666412 36,975 112 611 0
2018-09-22 09:15:21 GMT 52.837303 1.655247 36,975 112 611 0
2018-09-22 09:15:18 GMT 52.839909 1.644889 36,975 112 611 0
2018-09-22 09:15:15 GMT 52.844009 1.628571 36,975 112 611 0
2018-09-22 09:15:12 GMT 52.846798 1.617344 36,975 112 611 0
2018-09-22 09:15:09 GMT 52.849407 1.606986 36,975 112 611 0
2018-09-22 09:15:06 GMT 52.853317 1.591448 36,975 112 611 0
2018-09-22 09:15:03 GMT 52.857182 1.575989 36,975 112 611 0
2018-09-22 09:15:00 GMT 52.863277 1.551897 36,975 112 613 0
2018-09-22 09:14:57 GMT 52.863277 1.551897 36,975 112 611 0
2018-09-22 09:14:54 GMT 52.867188 1.536360 36,975 112 611 0
2018-09-22 09:14:51 GMT 52.871098 1.520900 36,975 112 612 0
2018-09-22 09:14:48 GMT 52.872822 1.513994 36,975 112 612 0
2018-09-22 09:14:45 GMT 52.876732 1.498457 36,975 112 612 0
2018-09-22 09:14:42 GMT 52.880447 1.483841 36,975 112 611 0
2018-09-22 09:14:39 GMT 52.882599 1.475220 36,975 112 611 0
2018-09-22 09:14:36 GMT 52.886276 1.460554 36,975 112 611 0
2018-09-22 09:14:33 GMT 52.889557 1.447601 36,975 112 612 0
2018-09-22 09:14:30 GMT 52.892578 1.435547 36,975 112 612 64
2018-09-22 09:14:27 GMT 52.895187 1.425171 36,975 112 612 64
2018-09-22 09:14:24 GMT 52.898846 1.410488 36,975 112 613 0
2018-09-22 09:14:21 GMT 52.905487 1.383667 36,975 112 613 0
2018-09-22 09:14:18 GMT 52.905487 1.383667 36,975 112 613 0
2018-09-22 09:14:15 GMT 52.908920 1.369858 36,975 112 613 0
2018-09-22 09:14:12 GMT 52.912579 1.355085 36,975 112 613 0
2018-09-22 09:14:09 GMT 52.916023 1.341274 36,975 112 613 0
2018-09-22 09:14:03 GMT 52.920723 1.322205 36,975 112 612 0
2018-09-22 09:14:00 GMT 52.924393 1.307526 36,975 112 613 0
2018-09-22 09:13:57 GMT 52.927612 1.294503 36,975 112 612 0
2018-09-22 09:13:54 GMT 52.930801 1.281509 36,975 112 612 0
2018-09-22 09:13:50 GMT 52.935104 1.264267 36,975 112 612 0
2018-09-22 09:13:47 GMT 52.939159 1.247811 36,975 112 612 0
2018-09-22 09:13:44 GMT 52.944946 1.224365 36,975 112 612 -64
2018-09-22 09:13:38 GMT 52.948563 1.209673 36,975 112 613 -64
2018-09-22 09:13:35 GMT 52.951767 1.196671 36,975 112 613 -64
2018-09-22 09:13:31 GMT 52.958801 1.168004 36,975 112 613 0
2018-09-22 09:13:25 GMT 52.961830 1.155840 36,975 112 613 0
2018-09-22 09:13:22 GMT 52.966110 1.138497 36,975 112 613 0
2018-09-22 09:13:19 GMT 52.969299 1.125488 36,975 112 613 0
2018-09-22 09:13:16 GMT 52.972534 1.112444 36,975 112 613 0
2018-09-22 09:13:13 GMT 52.974884 1.102905 36,975 112 613 0
2018-09-22 09:13:10 GMT 52.978123 1.089844 36,950 112 613 0
2018-09-22 09:13:07 GMT 52.981148 1.077680 36,975 112 613 0
2018-09-22 09:13:04 GMT 52.985229 1.061172 36,975 112 613 0
2018-09-22 09:13:01 GMT 52.988037 1.049822 36,975 112 613 0
2018-09-22 09:12:58 GMT 52.991482 1.035932 36,975 112 614 -64
2018-09-22 09:12:55 GMT 52.994247 1.024628 36,975 112 614 -64
2018-09-22 09:12:52 GMT 52.997486 1.011605 36,975 112 614 -64
2018-09-22 09:12:49 GMT 53.001305 0.995911 36,975 112 614 -64
2018-09-22 09:12:46 GMT 53.003448 0.987200 36,975 112 614 -64
2018-09-22 09:12:43 GMT 53.007065 0.972443 37,000 112 614 -64
2018-09-22 09:12:40 GMT 53.010498 0.958481 36,975 112 614 -64
2018-09-22 09:12:37 GMT 53.013222 0.947178 36,975 112 614 -64
2018-09-22 09:12:34 GMT 53.017506 0.929757 37,000 112 614 0
2018-09-22 09:12:31 GMT 53.020485 0.917594 36,975 112 614 0
2018-09-22 09:12:28 GMT 53.023464 0.905430 36,975 112 614 0
2018-09-22 09:12:25 GMT 53.025833 0.895844 37,000 112 614 0
2018-09-22 09:12:22 GMT 53.032242 0.869751 36,975 112 614 0
2018-09-22 09:12:15 GMT 53.037781 0.847092 37,000 112 614 0
2018-09-22 09:12:12 GMT 53.040344 0.836639 36,975 112 614 0
2018-09-22 09:12:09 GMT 53.045883 0.813980 37,000 112 615 0
2018-09-22 09:12:06 GMT 53.050140 0.796509 37,000 111 614 0
2018-09-22 09:12:03 GMT 53.050140 0.796509 37,000 111 614 0
2018-09-22 09:12:00 GMT 53.053116 0.784302 37,000 111 614 0
2018-09-22 09:11:57 GMT 53.056332 0.771162 37,000 111 614 0
2018-09-22 09:11:54 GMT 53.059525 0.758057 37,000 111 614 0
2018-09-22 09:11:51 GMT 53.062290 0.746756 37,000 111 614 0
2018-09-22 09:11:48 GMT 53.066525 0.729257 37,000 111 614 0
2018-09-22 09:11:45 GMT 53.068619 0.720546 37,000 111 615 0
2018-09-22 09:11:42 GMT 53.072483 0.704773 37,000 111 615 -64
2018-09-22 09:11:38 GMT 53.076256 0.689078 37,000 111 615 -64
2018-09-22 09:11:35 GMT 53.080490 0.671579 37,025 111 615 -64
2018-09-22 09:11:32 GMT 53.083282 0.660172 37,025 111 615 -64
2018-09-22 09:11:29 GMT 53.086212 0.647964 37,025 111 615 -64
2018-09-22 09:11:26 GMT 53.088776 0.637436 37,025 111 615 -64
2018-09-22 09:11:23 GMT 53.091705 0.625153 37,025 111 614 -64
2018-09-22 09:11:20 GMT 53.095917 0.607701 37,025 111 614 -64
2018-09-22 09:11:17 GMT 53.099064 0.594554 37,025 111 615 -64
2018-09-22 09:11:14 GMT 53.101578 0.583972 37,050 111 615 -64
2018-09-22 09:11:11 GMT 53.104557 0.571774 37,050 111 615 -64
2018-09-22 09:11:08 GMT 53.107681 0.558576 37,050 111 615 -64
2018-09-22 09:11:05 GMT 53.110657 0.546334 37,025 111 615 0
2018-09-22 09:11:02 GMT 53.113777 0.533160 37,025 111 616 64
2018-09-22 09:10:59 GMT 53.116928 0.520046 37,025 111 615 0
2018-09-22 09:10:56 GMT 53.120945 0.503352 37,050 111 615 0
2018-09-22 09:10:53 GMT 53.124069 0.490147 37,025 111 616 64
2018-09-22 09:10:50 GMT 53.127602 0.475239 37,025 111 616 0
2018-09-22 09:10:47 GMT 53.130535 0.462961 37,025 111 616 0
2018-09-22 09:10:44 GMT 53.133682 0.449733 37,025 111 616 64
2018-09-22 09:10:41 GMT 53.136612 0.437413 37,025 111 616 0
2018-09-22 09:10:38 GMT 53.140366 0.421561 37,025 111 616 0
2018-09-22 09:10:35 GMT 53.142471 0.412772 37,025 111 616 0
2018-09-22 09:10:32 GMT 53.146454 0.396073 37,025 111 616 0
2018-09-22 09:10:29 GMT 53.149387 0.383794 37,025 111 616 0
2018-09-22 09:10:26 GMT 53.155766 0.357460 37,025 111 616 64
2018-09-22 09:10:23 GMT 53.155766 0.357460 37,025 111 616 0
2018-09-22 09:10:20 GMT 53.158539 0.346069 37,025 111 616 0
2018-09-22 09:10:17 GMT 53.162144 0.331125 37,025 111 616 0
2018-09-22 09:10:14 GMT 53.164902 0.319702 37,025 111 616 0
2018-09-22 09:10:11 GMT 53.167923 0.307382 37,025 111 616 64
2018-09-22 09:10:08 GMT 53.171082 0.294207 37,025 111 616 64
2018-09-22 09:10:05 GMT 53.174061 0.281929 37,025 111 616 128
2018-09-22 09:10:02 GMT 53.177216 0.268773 37,025 111 616 128
2018-09-22 09:09:59 GMT 53.180969 0.252921 37,025 111 615 0
2018-09-22 09:09:56 GMT 53.183899 0.240601 37,000 111 616 0
2018-09-22 09:09:53 GMT 53.186829 0.228202 37,025 111 615 -128
2018-09-22 09:09:50 GMT 53.190353 0.213264 37,025 111 616 0
2018-09-22 09:09:47 GMT 53.193466 0.200030 37,025 111 615 0
2018-09-22 09:09:44 GMT 53.196350 0.187631 37,025 111 615 0
2018-09-22 09:09:41 GMT 53.199234 0.175310 37,025 111 615 -64
2018-09-22 09:09:38 GMT 53.202942 0.159459 37,025 111 615 -64
2018-09-22 09:09:35 GMT 53.206043 0.146215 37,050 111 615 -64
2018-09-22 09:09:32 GMT 53.208511 0.135633 37,025 111 615 -64
2018-09-22 09:09:29 GMT 53.214748 0.109217 37,050 111 615 -128
2018-09-22 09:09:26 GMT 53.214748 0.109217 37,050 111 615 -128
2018-09-22 09:09:23 GMT 53.217632 0.096857 37,050 111 615 -64
2018-09-22 09:09:20 GMT 53.220749 0.083653 37,050 111 615 -128
2018-09-22 09:09:17 GMT 53.224293 0.068745 37,050 111 615 -64
2018-09-22 09:09:14 GMT 53.228256 0.051950 37,050 111 615 -64
2018-09-22 09:09:11 GMT 53.230728 0.041434 37,050 111 615 -64
2018-09-22 09:09:08 GMT 53.233246 0.030840 37,050 111 615 0
2018-09-22 09:09:05 GMT 53.237366 0.013184 37,050 111 615 0
2018-09-22 09:09:02 GMT 53.239471 0.004395 37,050 111 615 0
2018-09-22 09:08:59 GMT 53.242767 -0.009731 37,050 111 616 64
2018-09-22 09:08:56 GMT 53.246262 -0.024719 37,050 111 616 64
2018-09-22 09:08:53 GMT 53.249817 -0.039708 37,050 111 616 64
2018-09-22 09:08:50 GMT 53.252083 -0.049438 37,050 111 615 64
2018-09-22 09:08:47 GMT 53.255173 -0.062701 37,050 111 615 64
2018-09-22 09:08:44 GMT 53.261307 -0.089146 37,050 111 615 64
2018-09-22 09:08:38 GMT 53.263954 -0.100654 37,050 111 615 0
2018-09-22 09:08:35 GMT 53.268265 -0.119202 37,050 111 615 0
2018-09-22 09:08:31 GMT 53.271561 -0.133327 37,050 111 614 -64
2018-09-22 09:08:28 GMT 53.275635 -0.150984 37,050 111 614 -64
2018-09-22 09:08:25 GMT 53.278519 -0.163304 37,050 111 614 -64
2018-09-22 09:08:22 GMT 53.280991 -0.173898 37,075 111 614 -64
2018-09-22 09:08:19 GMT 53.284241 -0.188023 37,050 111 614 -64
2018-09-22 09:08:16 GMT 53.286903 -0.199531 37,075 111 614 0
2018-09-22 09:08:13 GMT 53.289791 -0.211891 37,075 111 614 -64
2018-09-22 09:08:10 GMT 53.294304 -0.231278 37,075 111 614 0
2018-09-22 09:08:07 GMT 53.296967 -0.242719 37,050 111 614 0
2018-09-22 09:08:04 GMT 53.299438 -0.253313 37,050 111 614 0
2018-09-22 09:08:01 GMT 53.302277 -0.265712 37,050 111 614 0
2018-09-22 09:07:58 GMT 53.305386 -0.278940 37,050 110 614 0
2018-09-22 09:07:55 GMT 53.309235 -0.295689 37,050 111 614 64
2018-09-22 09:07:52 GMT 53.311901 -0.307132 37,050 111 614 64
2018-09-22 09:07:49 GMT 53.314178 -0.316877 37,050 111 614 64
2018-09-22 09:07:46 GMT 53.318253 -0.334534 37,050 111 615 64
2018-09-22 09:07:43 GMT 53.321091 -0.346933 37,050 111 615 64
2018-09-22 09:07:39 GMT 53.328461 -0.378793 37,050 111 615 64
2018-09-22 09:07:36 GMT 53.328461 -0.378793 37,050 111 615 64
2018-09-22 09:07:33 GMT 53.331501 -0.392034 37,025 111 615 64
2018-09-22 09:07:30 GMT 53.333969 -0.402617 37,025 110 614 64
2018-09-22 09:07:27 GMT 53.336609 -0.414185 37,025 110 614 64
2018-09-22 09:07:24 GMT 53.340225 -0.430115 37,025 110 614 64
2018-09-22 09:07:21 GMT 53.343475 -0.444240 37,025 110 614 64
2018-09-22 09:07:18 GMT 53.346119 -0.455771 37,025 110 614 64
2018-09-22 09:07:15 GMT 53.349564 -0.470843 37,000 110 614 64
2018-09-22 09:07:12 GMT 53.352589 -0.484125 37,025 110 614 64
2018-09-22 09:07:09 GMT 53.355606 -0.497367 37,025 110 614 64
2018-09-22 09:07:05 GMT 53.359852 -0.515954 37,000 110 614 64
2018-09-22 09:07:02 GMT 53.362885 -0.529306 37,025 110 614 64
2018-09-22 09:06:59 GMT 53.365948 -0.542531 37,000 110 614 64
2018-09-22 09:06:56 GMT 53.368370 -0.553194 37,000 110 614 0
2018-09-22 09:06:53 GMT 53.372002 -0.569108 37,000 110 614 0
2018-09-22 09:06:50 GMT 53.375015 -0.582354 37,000 110 614 0
2018-09-22 09:06:47 GMT 53.378471 -0.597462 37,025 110 613 -64
2018-09-22 09:06:44 GMT 53.380280 -0.605425 37,025 110 613 -64
2018-09-22 09:06:41 GMT 53.384476 -0.623959 37,025 110 613 -64
2018-09-22 09:06:38 GMT 53.386898 -0.634622 37,025 110 613 -64
2018-09-22 09:06:34 GMT 53.390305 -0.649684 37,025 110 612 -64
2018-09-22 09:06:31 GMT 53.394333 -0.667341 37,025 110 612 -64
2018-09-22 09:06:28 GMT 53.397373 -0.680587 37,025 110 612 -64
2018-09-22 09:06:25 GMT 53.399551 -0.690334 37,025 110 612 -64
2018-09-22 09:06:22 GMT 53.406544 -0.721382 37,025 110 612 -64
2018-09-22 09:06:19 GMT 53.406544 -0.721382 37,025 110 612 0
2018-09-22 09:06:16 GMT 53.408752 -0.731062 37,025 110 612 0
2018-09-22 09:06:13 GMT 53.411758 -0.744324 37,025 110 612 0
2018-09-22 09:06:10 GMT 53.414383 -0.755859 37,025 110 612 0
2018-09-22 09:06:07 GMT 53.417999 -0.771790 37,025 110 613 0
2018-09-22 09:06:04 GMT 53.421021 -0.785119 37,025 110 613 0
2018-09-22 09:06:01 GMT 53.424232 -0.799255 37,025 110 613 0
2018-09-22 09:05:58 GMT 53.426834 -0.810713 37,025 111 612 0
2018-09-22 09:05:55 GMT 53.432556 -0.835510 37,025 111 612 0
2018-09-22 09:05:49 GMT 53.436264 -0.851362 37,025 111 612 64
2018-09-22 09:05:46 GMT 53.438324 -0.860151 37,025 111 612 64
2018-09-22 09:05:43 GMT 53.442902 -0.879534 37,000 111 612 64
2018-09-22 09:05:40 GMT 53.445831 -0.891854 37,000 111 612 64
2018-09-22 09:05:37 GMT 53.448112 -0.901525 37,025 111 612 64
2018-09-22 09:05:34 GMT 53.451233 -0.914690 37,000 111 612 64
2018-09-22 09:05:31 GMT 53.454163 -0.927011 37,000 111 612 64
2018-09-22 09:05:28 GMT 53.457504 -0.941136 37,000 111 612 64
2018-09-22 09:05:25 GMT 53.462082 -0.960440 37,000 111 611 64
2018-09-22 09:05:22 GMT 53.463943 -0.968332 37,000 111 611 64
2018-09-22 09:05:19 GMT 53.467667 -0.984165 37,000 111 611 64
2018-09-22 09:05:16 GMT 53.474121 -1.011448 37,000 111 611 0
2018-09-22 09:05:13 GMT 53.476181 -1.020316 37,000 111 611 0
2018-09-22 09:05:10 GMT 53.480347 -1.037894 37,000 111 611 0
2018-09-22 09:05:07 GMT 53.480347 -1.037894 37,000 111 611 0
2018-09-22 09:05:04 GMT 53.482819 -1.048410 37,000 111 611 0
2018-09-22 09:05:01 GMT 53.486332 -1.063412 37,000 111 611 0
2018-09-22 09:04:58 GMT 53.488586 -1.073129 37,000 111 612 0
2018-09-22 09:04:55 GMT 53.491688 -1.086354 37,000 111 612 0
2018-09-22 09:04:52 GMT 53.494400 -1.097770 37,000 111 612 0
2018-09-22 09:04:49 GMT 53.498108 -1.113621 37,000 111 612 0
2018-09-22 09:04:46 GMT 53.504070 -1.139266 37,000 111 612 0
2018-09-22 09:04:40 GMT 53.507748 -1.155099 37,000 111 612 0
2018-09-22 09:04:37 GMT 53.511471 -1.171013 37,000 111 612 0
2018-09-22 09:04:34 GMT 53.514542 -1.184248 37,000 111 611 0
2018-09-22 09:04:30 GMT 53.517426 -1.196568 37,000 111 611 0
2018-09-22 09:04:27 GMT 53.520676 -1.210693 37,000 111 611 0
2018-09-22 09:04:24 GMT 53.523762 -1.223925 37,000 111 611 0
2018-09-22 09:04:21 GMT 53.527020 -1.238062 37,000 111 611 0
2018-09-22 09:04:18 GMT 53.530697 -1.253976 37,000 111 611 0
2018-09-22 09:04:15 GMT 53.532944 -1.263663 37,000 111 610 0
2018-09-22 09:04:12 GMT 53.535828 -1.275984 37,025 111 610 -64
2018-09-22 09:04:09 GMT 53.539902 -1.293640 37,025 111 610 -64
2018-09-22 09:04:06 GMT 53.543198 -1.307765 37,025 111 610 -64
2018-09-22 09:04:03 GMT 53.545826 -1.319248 37,025 111 610 0
2018-09-22 09:04:00 GMT 53.548508 -1.330680 37,025 111 610 0
2018-09-22 09:03:57 GMT 53.554230 -1.355399 37,025 111 610 0
2018-09-22 09:03:54 GMT 53.554230 -1.355399 37,025 111 610 0
2018-09-22 09:03:51 GMT 53.558117 -1.372160 37,000 111 611 64
2018-09-22 09:03:48 GMT 53.560585 -1.382742 37,000 111 611 64
2018-09-22 09:03:45 GMT 53.564217 -1.398657 37,000 111 611 64
2018-09-22 09:03:42 GMT 53.566681 -1.409239 37,000 111 611 64
2018-09-22 09:03:39 GMT 53.569748 -1.422494 37,000 111 610 64
2018-09-22 09:03:36 GMT 53.572586 -1.434814 37,000 111 610 64
2018-09-22 09:03:33 GMT 53.575836 -1.449018 37,000 111 611 0
2018-09-22 09:03:30 GMT 53.578880 -1.462232 37,000 111 611 0
2018-09-22 09:03:27 GMT 53.582558 -1.478146 37,000 111 611 0
2018-09-22 09:03:24 GMT 53.588013 -1.502066 36,975 111 611 0
2018-09-22 09:03:21 GMT 53.588013 -1.502066 37,000 111 611 0
2018-09-22 09:03:18 GMT 53.591030 -1.515386 37,000 111 611 0
2018-09-22 09:03:15 GMT 53.597546 -1.543741 37,000 111 613 64
2018-09-22 09:03:12 GMT 53.597546 -1.543741 37,000 111 612 0
2018-09-22 09:03:09 GMT 53.599968 -1.554323 37,000 111 612 0
2018-09-22 09:03:06 GMT 53.603600 -1.570318 37,000 111 612 64
2018-09-22 09:03:03 GMT 53.607056 -1.585406 37,000 111 612 64
2018-09-22 09:03:00 GMT 53.609116 -1.594273 37,000 111 612 64
2018-09-22 09:02:57 GMT 53.611744 -1.605781 36,975 111 613 64
2018-09-22 09:02:54 GMT 53.616028 -1.624486 36,975 111 613 64
2018-09-22 09:02:51 GMT 53.619053 -1.637771 36,975 111 614 64
2018-09-22 09:02:48 GMT 53.621292 -1.647557 36,975 111 614 64
2018-09-22 09:02:45 GMT 53.625366 -1.665370 36,975 110 612 0
2018-09-22 09:02:42 GMT 53.627426 -1.674238 36,975 111 613 64
2018-09-22 09:02:39 GMT 53.631454 -1.692051 36,975 111 613 64
2018-09-22 09:02:36 GMT 53.633514 -1.700919 36,975 110 613 0
2018-09-22 09:02:33 GMT 53.636559 -1.714271 36,975 110 613 0
2018-09-22 09:02:30 GMT 53.639969 -1.729405 36,975 110 613 0
2018-09-22 09:02:27 GMT 53.642609 -1.740929 36,975 110 613 0
2018-09-22 09:02:24 GMT 53.646057 -1.756086 36,975 110 613 0
2018-09-22 09:02:21 GMT 53.648663 -1.767668 36,975 110 613 0
2018-09-22 09:02:18 GMT 53.652100 -1.782767 36,975 110 613 0
2018-09-22 09:02:15 GMT 53.654713 -1.794326 36,975 110 613 0
2018-09-22 09:02:12 GMT 53.660767 -1.821065 36,975 110 613 0
2018-09-22 09:02:06 GMT 53.664597 -1.837934 36,975 110 613 0
2018-09-22 09:02:03 GMT 53.666977 -1.848607 36,975 110 611 0
2018-09-22 09:02:00 GMT 53.669983 -1.861940 36,975 110 612 0
2018-09-22 09:01:57 GMT 53.673019 -1.875288 36,975 110 612 0
2018-09-22 09:01:54 GMT 53.677002 -1.893101 36,975 110 612 0
2018-09-22 09:01:51 GMT 53.679428 -1.903774 36,975 110 611 0
2018-09-22 09:01:48 GMT 53.681808 -1.914446 36,975 110 611 0
2018-09-22 09:01:45 GMT 53.685013 -1.928728 36,975 110 612 0
2018-09-22 09:01:42 GMT 53.688789 -1.945630 36,975 110 612 0
2018-09-22 09:01:38 GMT 53.691788 -1.959019 36,975 110 611 0
2018-09-22 09:01:35 GMT 53.694580 -1.971418 36,975 110 611 0
2018-09-22 09:01:32 GMT 53.698608 -1.989232 36,975 110 612 0
2018-09-22 09:01:29 GMT 53.702011 -2.004359 36,975 110 612 0
2018-09-22 09:01:26 GMT 53.704384 -2.015022 36,975 110 612 0
2018-09-22 09:01:23 GMT 53.707970 -2.031097 36,975 110 612 -64
2018-09-22 09:01:20 GMT 53.711182 -2.045315 36,975 110 612 -64
2018-09-22 09:01:17 GMT 53.712982 -2.053345 36,975 110 612 -64
2018-09-22 09:01:14 GMT 53.716347 -2.068499 36,975 110 612 0
2018-09-22 09:01:11 GMT 53.718723 -2.079163 36,975 110 612 0
2018-09-22 09:01:08 GMT 53.722504 -2.096113 36,975 110 612 0
2018-09-22 09:01:05 GMT 53.728683 -2.123754 36,975 110 612 -64
2018-09-22 09:01:02 GMT 53.728683 -2.123754 36,975 110 612 0
2018-09-22 09:00:59 GMT 53.730835 -2.133623 36,975 110 612 -64
2018-09-22 09:00:56 GMT 53.733807 -2.146939 36,975 110 612 0
2018-09-22 09:00:53 GMT 53.739391 -2.171981 36,975 110 612 0
2018-09-22 09:00:47 GMT 53.743149 -2.188947 36,975 110 612 0
2018-09-22 09:00:44 GMT 53.745724 -2.200578 36,975 110 612 0
2018-09-22 09:00:41 GMT 53.749466 -2.217512 36,975 110 612 0
2018-09-22 09:00:38 GMT 53.755051 -2.242545 36,975 110 612 0
2018-09-22 09:00:35 GMT 53.755051 -2.242545 36,975 110 612 0
2018-09-22 09:00:32 GMT 53.757591 -2.254136 36,975 110 612 0
2018-09-22 09:00:29 GMT 53.761368 -2.271188 36,975 110 612 0
2018-09-22 09:00:26 GMT 53.763382 -2.280134 36,975 110 612 0
2018-09-22 09:00:23 GMT 53.766953 -2.296221 36,975 110 613 0
2018-09-22 09:00:20 GMT 53.770477 -2.312308 36,975 110 613 0
2018-09-22 09:00:17 GMT 53.772491 -2.321254 36,975 110 613 0
2018-09-22 09:00:14 GMT 53.775051 -2.332898 36,975 110 613 -64
2018-09-22 09:00:11 GMT 53.778397 -2.348092 37,000 110 613 -64
2018-09-22 09:00:08 GMT 53.781967 -2.364258 37,000 110 613 -64
2018-09-22 09:00:05 GMT 53.785538 -2.380345 37,000 110 613 -64
2018-09-22 09:00:02 GMT 53.787666 -2.390253 37,000 110 614 -64
2018-09-22 08:59:59 GMT 53.791031 -2.405457 37,000 110 614 -64
2018-09-22 08:59:56 GMT 53.793579 -2.417154 37,000 110 614 -64
2018-09-22 08:59:53 GMT 53.796936 -2.432373 37,000 110 613 -64
2018-09-22 08:59:50 GMT 53.798904 -2.441398 37,000 110 614 -64
2018-09-22 08:59:47 GMT 53.802608 -2.458433 37,000 110 613 -64
2018-09-22 08:59:44 GMT 53.805729 -2.472812 37,000 110 614 -64
2018-09-22 08:59:40 GMT 53.809845 -2.491699 37,000 110 614 -64
2018-09-22 08:59:37 GMT 53.814713 -2.514173 37,000 110 614 0
2018-09-22 08:59:34 GMT 53.814713 -2.514173 37,000 110 614 -64
2018-09-22 08:59:31 GMT 53.818039 -2.529445 37,000 110 614 0
2018-09-22 08:59:28 GMT 53.821564 -2.545611 37,000 110 614 0
2018-09-22 08:59:25 GMT 53.823532 -2.554635 37,000 110 614 0
2018-09-22 08:59:22 GMT 53.827057 -2.570801 37,000 110 615 0
2018-09-22 08:59:19 GMT 53.829025 -2.579825 37,000 110 614 0
2018-09-22 08:59:16 GMT 53.831985 -2.593258 37,000 110 614 0
2018-09-22 08:59:13 GMT 53.835709 -2.610352 37,000 110 614 0
2018-09-22 08:59:10 GMT 53.838867 -2.624712 37,000 110 614 0
2018-09-22 08:59:07 GMT 53.841614 -2.637347 37,000 110 614 0
2018-09-22 08:59:04 GMT 53.844181 -2.648998 37,000 110 614 0
2018-09-22 08:59:01 GMT 53.846928 -2.661600 37,000 110 614 0
2018-09-22 08:58:58 GMT 53.850311 -2.676897 37,000 110 614 0
2018-09-22 08:58:55 GMT 53.853836 -2.693063 37,000 110 614 0
2018-09-22 08:58:52 GMT 53.856216 -2.703892 37,000 110 614 0
2018-09-22 08:58:49 GMT 53.859375 -2.718253 37,025 110 615 0
2018-09-22 08:58:46 GMT 53.862488 -2.732692 37,025 110 615 0
2018-09-22 08:58:42 GMT 53.865456 -2.746178 37,025 110 614 0
2018-09-22 08:58:39 GMT 53.868805 -2.761492 37,025 110 615 0
2018-09-22 08:58:36 GMT 53.872330 -2.777658 37,025 110 614 0
2018-09-22 08:58:33 GMT 53.875278 -2.791174 37,025 110 614 0
2018-09-22 08:58:30 GMT 53.877605 -2.801998 37,025 110 614 0
2018-09-22 08:58:27 GMT 53.881516 -2.820093 37,025 109 617 64
2018-09-22 08:58:24 GMT 53.883636 -2.830000 37,025 110 615 0
2018-09-22 08:58:21 GMT 53.888916 -2.854345 37,025 109 617 64
2018-09-22 08:58:18 GMT 53.888916 -2.854345 37,000 109 617 64
2018-09-22 08:58:15 GMT 53.892197 -2.869707 37,025 109 615 0
2018-09-22 08:58:12 GMT 53.895157 -2.883265 37,025 109 615 0
2018-09-22 08:58:09 GMT 53.898056 -2.896859 37,025 109 615 0
2018-09-22 08:58:06 GMT 53.903870 -2.924011 37,025 109 615 0
2018-09-22 08:58:03 GMT 53.903870 -2.924011 37,025 109 616 64
2018-09-22 08:58:00 GMT 53.907349 -2.940255 37,000 109 616 64
2018-09-22 08:57:56 GMT 53.911194 -2.958383 37,025 109 616 64
2018-09-22 08:57:53 GMT 53.914307 -2.972900 37,000 109 616 64
2018-09-22 08:57:50 GMT 53.916229 -2.981925 37,000 109 616 64
2018-09-22 08:57:47 GMT 53.919342 -2.996443 37,000 109 616 64
2018-09-22 08:57:44 GMT 53.922821 -3.012765 37,000 109 616 64
2018-09-22 08:57:41 GMT 53.925110 -3.023673 37,000 109 617 64
2018-09-22 08:57:38 GMT 53.928020 -3.037316 37,000 109 617 64
2018-09-22 08:57:35 GMT 53.930923 -3.050903 37,000 109 617 64
2018-09-22 08:57:32 GMT 53.934402 -3.067304 37,000 109 617 0
2018-09-22 08:57:29 GMT 53.937286 -3.080938 37,000 109 618 0
2018-09-22 08:57:25 GMT 53.941151 -3.099114 37,000 109 618 0
2018-09-22 08:57:22 GMT 53.943649 -3.110936 37,000 109 618 0
2018-09-22 08:57:19 GMT 53.946548 -3.124560 37,000 109 618 0
2018-09-22 08:57:16 GMT 53.949249 -3.137324 37,000 109 618 0
2018-09-22 08:57:13 GMT 53.951996 -3.150087 37,000 109 618 0
2018-09-22 08:57:10 GMT 53.955860 -3.168263 37,000 109 618 0
2018-09-22 08:57:07 GMT 53.958755 -3.181955 37,000 109 618 0
2018-09-22 08:57:04 GMT 53.960678 -3.191057 37,000 109 618 0
2018-09-22 08:57:01 GMT 53.964157 -3.207458 37,000 109 618 0
2018-09-22 08:56:58 GMT 53.966492 -3.218366 37,000 109 619 0
2018-09-22 08:56:54 GMT 53.970943 -3.239351 37,000 109 619 0
2018-09-22 08:56:51 GMT 53.973816 -3.253052 37,000 109 619 0
2018-09-22 08:56:48 GMT 53.976341 -3.264878 37,000 109 619 0
2018-09-22 08:56:45 GMT 53.979042 -3.277642 37,000 109 619 0
2018-09-22 08:56:42 GMT 53.984814 -3.305027 37,000 109 618 -64
2018-09-22 08:56:39 GMT 53.984814 -3.305027 37,000 109 618 -64
2018-09-22 08:56:36 GMT 53.987686 -3.318734 37,000 109 618 -64
2018-09-22 08:56:32 GMT 53.992676 -3.342433 37,000 109 618 -64
2018-09-22 08:56:29 GMT 53.994965 -3.353420 37,025 109 618 -64
2018-09-22 08:56:26 GMT 53.996731 -3.361655 37,025 109 618 -64
2018-09-22 08:56:23 GMT 53.999588 -3.375314 37,025 109 618 -64
2018-09-22 08:56:20 GMT 54.003620 -3.394533 37,025 109 618 -64
2018-09-22 08:56:17 GMT 54.005901 -3.405439 37,025 109 618 -64
2018-09-22 08:56:14 GMT 54.008602 -3.418202 37,025 109 618 -64
2018-09-22 08:56:11 GMT 54.012047 -3.434682 37,025 109 618 -64
2018-09-22 08:56:08 GMT 54.014923 -3.448373 37,025 109 618 -64
2018-09-22 08:56:05 GMT 54.017990 -3.462969 37,025 109 618 -64
2018-09-22 08:56:01 GMT 54.022430 -3.483959 37,025 109 618 0
2018-09-22 08:55:58 GMT 54.027603 -3.508641 37,025 109 618 0
2018-09-22 08:55:55 GMT 54.027603 -3.508641 37,025 109 618 0
2018-09-22 08:55:52 GMT 54.030437 -3.522330 37,025 109 618 0
2018-09-22 08:55:49 GMT 54.033882 -3.538809 37,025 109 618 0
2018-09-22 08:55:46 GMT 54.035835 -3.547938 37,025 109 618 0
2018-09-22 08:55:43 GMT 54.038490 -3.560782 37,050 109 620 0
2018-09-22 08:55:40 GMT 54.042480 -3.579973 37,050 109 619 0
2018-09-22 08:55:37 GMT 54.044403 -3.589155 37,050 109 619 0
2018-09-22 08:55:33 GMT 54.051590 -3.623997 37,050 109 620 0
2018-09-22 08:55:30 GMT 54.051590 -3.623997 37,050 109 620 0
2018-09-22 08:55:26 GMT 54.054459 -3.637767 37,050 109 619 0
2018-09-22 08:55:23 GMT 54.057484 -3.652389 37,050 109 620 0
2018-09-22 08:55:20 GMT 54.060135 -3.665233 37,050 109 620 0
2018-09-22 08:55:17 GMT 54.063534 -3.681793 37,050 109 620 0
2018-09-22 08:55:14 GMT 54.065441 -3.691002 37,050 109 620 0
2018-09-22 08:55:11 GMT 54.068470 -3.705705 37,050 109 620 0
2018-09-22 08:55:08 GMT 54.072418 -3.724993 37,050 109 620 0
2018-09-22 08:55:05 GMT 54.074474 -3.735109 37,050 109 620 0
2018-09-22 08:55:01 GMT 54.081802 -3.770979 37,050 109 621 0
2018-09-22 08:54:58 GMT 54.081802 -3.770979 37,050 109 621 0
2018-09-22 08:54:55 GMT 54.084251 -3.783013 37,050 109 621 64
2018-09-22 08:54:52 GMT 54.086655 -3.794992 37,025 109 621 0
2018-09-22 08:54:49 GMT 54.089676 -3.809666 37,050 108 620 0
2018-09-22 08:54:46 GMT 54.092491 -3.823485 37,050 108 620 0
2018-09-22 08:54:43 GMT 54.097870 -3.850237 37,050 108 620 0
2018-09-22 08:54:40 GMT 54.100845 -3.864990 37,050 108 620 0
2018-09-22 08:54:37 GMT 54.100845 -3.864990 37,050 108 620 0
2018-09-22 08:54:34 GMT 54.103455 -3.877860 37,050 108 620 0
2018-09-22 08:54:31 GMT 54.106270 -3.891664 37,050 108 620 0
2018-09-22 08:54:28 GMT 54.109249 -3.906447 37,050 108 620 0
2018-09-22 08:54:24 GMT 54.112972 -3.924866 37,050 108 620 0
2018-09-22 08:54:21 GMT 54.115162 -3.935933 37,050 108 620 0
2018-09-22 08:54:18 GMT 54.118332 -3.951625 37,025 108 620 0
2018-09-22 08:54:15 GMT 54.121307 -3.966378 37,050 108 620 0
2018-09-22 08:54:12 GMT 54.124100 -3.980201 37,025 108 620 0
2018-09-22 08:54:09 GMT 54.130013 -4.009687 37,025 108 620 0
2018-09-22 08:54:06 GMT 54.130013 -4.009687 37,025 108 620 0
2018-09-22 08:54:00 GMT 54.134674 -4.032767 37,025 108 620 0
2018-09-22 08:53:57 GMT 54.138336 -4.051208 37,025 108 620 0
2018-09-22 08:53:54 GMT 54.141136 -4.065022 37,025 108 620 0
2018-09-22 08:53:51 GMT 54.143555 -4.077026 37,025 108 620 0
2018-09-22 08:53:45 GMT 54.148911 -4.103797 37,025 108 620 0
2018-09-22 08:53:42 GMT 54.151657 -4.117597 37,025 108 620 0
2018-09-22 08:53:39 GMT 54.154449 -4.131425 37,025 108 619 0
2018-09-22 08:53:36 GMT 54.157757 -4.148066 37,025 108 620 0
2018-09-22 08:53:33 GMT 54.160736 -4.162768 37,025 108 620 0
2018-09-22 08:53:30 GMT 54.162971 -4.173835 37,025 108 619 0
2018-09-22 08:53:27 GMT 54.165951 -4.188618 37,025 108 619 0
2018-09-22 08:53:24 GMT 54.168365 -4.200623 37,025 108 619 0
2018-09-22 08:53:21 GMT 54.172234 -4.219962 37,025 108 619 0
2018-09-22 08:53:18 GMT 54.173904 -4.228245 37,025 108 619 0
2018-09-22 08:53:15 GMT 54.177246 -4.244882 37,025 108 619 0
2018-09-22 08:53:12 GMT 54.179684 -4.256879 37,025 108 619 0
2018-09-22 08:53:09 GMT 54.182053 -4.268816 37,025 108 619 0
2018-09-22 08:53:06 GMT 54.185806 -4.287258 37,025 108 619 0
2018-09-22 08:53:03 GMT 54.188004 -4.298322 37,025 108 619 0
2018-09-22 08:53:00 GMT 54.190613 -4.311271 37,025 108 619 0
2018-09-22 08:52:57 GMT 54.196152 -4.338893 37,025 108 619 0
2018-09-22 08:52:51 GMT 54.199280 -4.354544 37,025 108 618 0
2018-09-22 08:52:47 GMT 54.205521 -4.385968 37,025 108 619 0
2018-09-22 08:52:44 GMT 54.208237 -4.399789 37,025 108 619 0
2018-09-22 08:52:37 GMT 54.211853 -4.418309 37,025 108 619 0
2018-09-22 08:52:34 GMT 54.214550 -4.432176 37,025 108 619 0
2018-09-22 08:52:31 GMT 54.217209 -4.446089 37,025 108 618 0
2018-09-22 08:52:28 GMT 54.220413 -4.462725 37,025 107 619 0
2018-09-22 08:52:25 GMT 54.222198 -4.472063 37,025 107 618 0
2018-09-22 08:52:22 GMT 54.224792 -4.485976 37,025 107 619 0
2018-09-22 08:52:19 GMT 54.227261 -4.498901 37,025 107 619 0
2018-09-22 08:52:16 GMT 54.232800 -4.528629 37,025 108 618 64
2018-09-22 08:52:13 GMT 54.232800 -4.528629 37,025 107 619 64
2018-09-22 08:52:10 GMT 54.234894 -4.539777 37,025 108 618 64
2018-09-22 08:52:06 GMT 54.239178 -4.562073 37,025 109 617 64
2018-09-22 08:52:03 GMT 54.244354 -4.586792 37,025 111 616 64
2018-09-22 08:52:00 GMT 54.247463 -4.600283 37,025 112 615 64
2018-09-22 08:51:57 GMT 54.251419 -4.616358 37,025 114 613 64
2018-09-22 08:51:54 GMT 54.251419 -4.616358 37,000 115 611 64
2018-09-22 08:51:51 GMT 54.254929 -4.629560 37,025 114 613 64
2018-09-22 08:51:48 GMT 54.258820 -4.643529 37,000 118 608 0
2018-09-22 08:51:45 GMT 54.263149 -4.658042 37,000 118 608 0
2018-09-22 08:51:42 GMT 54.266602 -4.669033 37,000 118 607 0
2018-09-22 08:51:39 GMT 54.269897 -4.679077 37,000 119 607 0
2018-09-22 08:51:36 GMT 54.275253 -4.694797 37,000 120 605 64
2018-09-22 08:51:33 GMT 54.278141 -4.702956 37,000 121 604 64
2018-09-22 08:51:30 GMT 54.283630 -4.718466 37,000 121 604 0
2018-09-22 08:51:27 GMT 54.287964 -4.730613 37,000 121 604 64
2018-09-22 08:51:23 GMT 54.294338 -4.748591 37,000 121 603 64
2018-09-22 08:51:20 GMT 54.297501 -4.757484 37,000 121 603 0
2018-09-22 08:51:17 GMT 54.301834 -4.769731 37,000 121 603 0
2018-09-22 08:51:14 GMT 54.305885 -4.781133 37,000 121 603 0
2018-09-22 08:51:11 GMT 54.310776 -4.794967 37,000 121 603 0
2018-09-22 08:51:07 GMT 54.316265 -4.810430 37,000 121 603 0
2018-09-22 08:51:04 GMT 54.320023 -4.821059 37,000 121 603 0
2018-09-22 08:51:01 GMT 54.325531 -4.836481 37,000 121 603 0
2018-09-22 08:50:58 GMT 54.330414 -4.850383 37,000 121 603 0
2018-09-22 08:50:55 GMT 54.333893 -4.860158 37,000 121 603 0
2018-09-22 08:50:52 GMT 54.338799 -4.873935 37,000 121 603 0
2018-09-22 08:50:49 GMT 54.342545 -4.884554 37,000 121 602 0
2018-09-22 08:50:45 GMT 54.349457 -4.904103 37,000 121 602 0
2018-09-22 08:50:42 GMT 54.353485 -4.915493 37,000 121 602 0
2018-09-22 08:50:39 GMT 54.356369 -4.923652 37,000 121 602 -64
2018-09-22 08:50:36 GMT 54.361839 -4.939104 37,025 121 602 -64
2018-09-22 08:50:33 GMT 54.366714 -4.952976 37,025 121 602 -64
2018-09-22 08:50:30 GMT 54.369289 -4.960327 37,025 121 602 -64
2018-09-22 08:50:27 GMT 54.374176 -4.974222 37,025 121 602 -64
2018-09-22 08:50:24 GMT 54.378799 -4.987227 37,025 121 602 -64
2018-09-22 08:50:21 GMT 54.387119 -5.010931 37,025 120 601 -64
2018-09-22 08:50:18 GMT 54.391125 -5.022333 37,025 120 601 -64
2018-09-22 08:50:15 GMT 54.395416 -5.034566 37,025 120 601 -64
2018-09-22 08:50:12 GMT 54.395416 -5.034566 37,025 120 601 -64
2018-09-22 08:50:09 GMT 54.398849 -5.044340 37,025 120 601 -64
2018-09-22 08:50:06 GMT 54.404022 -5.059043 37,025 120 601 -64
2018-09-22 08:50:03 GMT 54.413727 -5.086751 37,025 121 601 0
2018-09-22 08:50:00 GMT 54.416611 -5.094910 37,025 120 601 0
2018-09-22 08:49:57 GMT 54.416611 -5.094910 37,025 120 601 0
2018-09-22 08:49:54 GMT 54.421188 -5.107916 37,025 120 601 0
2018-09-22 08:49:51 GMT 54.425430 -5.120212 37,025 120 601 0
2018-09-22 08:49:48 GMT 54.429436 -5.131614 37,025 120 601 0
2018-09-22 08:49:45 GMT 54.439163 -5.159330 37,025 120 601 0
2018-09-22 08:49:42 GMT 54.439163 -5.159330 37,025 120 601 64
2018-09-22 08:49:39 GMT 54.442562 -5.169151 37,025 120 601 64
2018-09-22 08:49:35 GMT 54.448563 -5.186274 37,025 120 601 64
2018-09-22 08:49:32 GMT 54.453094 -5.199361 37,025 120 601 64
2018-09-22 08:49:29 GMT 54.456806 -5.210016 37,025 120 601 64
2018-09-22 08:49:26 GMT 54.461929 -5.224748 37,025 120 601 64
2018-09-22 08:49:23 GMT 54.465328 -5.234486 37,025 120 601 0
2018-09-22 08:49:19 GMT 54.471611 -5.252464 37,025 120 601 64
2018-09-22 08:49:15 GMT 54.477291 -5.268860 37,025 120 601 64
2018-09-22 08:49:12 GMT 54.485252 -5.291748 37,000 120 601 64
2018-09-22 08:49:06 GMT 54.490128 -5.305669 37,000 120 600 0
2018-09-22 08:49:03 GMT 54.494110 -5.317060 37,000 120 600 0
2018-09-22 08:49:00 GMT 54.498093 -5.328531 37,000 120 600 0
2018-09-22 08:48:57 GMT 54.502625 -5.341617 37,025 120 600 0
2018-09-22 08:48:53 GMT 54.509739 -5.361994 37,025 120 600 0
2018-09-22 08:48:49 GMT 54.515415 -5.378390 37,025 120 600 0
2018-09-22 08:48:45 GMT 54.519104 -5.388956 37,025 120 599 0
2018-09-22 08:48:42 GMT 54.523636 -5.402042 37,025 120 599 0
2018-09-22 08:48:39 GMT 54.528717 -5.416744 37,025 120 599 0
2018-09-22 08:48:36 GMT 54.531292 -5.424083 37,025 120 599 0
2018-09-22 08:48:32 GMT 54.537231 -5.441221 37,025 120 599 0
2018-09-22 08:48:28 GMT 54.543411 -5.459236 37,025 120 599 64
2018-09-22 08:48:24 GMT 54.549355 -5.476352 37,025 120 599 64
2018-09-22 08:48:21 GMT 54.553867 -5.489419 37,000 120 598 64
2018-09-22 08:48:18 GMT 54.557220 -5.499240 37,000 120 598 64
2018-09-22 08:48:15 GMT 54.561737 -5.512307 37,000 120 598 64
2018-09-22 08:48:12 GMT 54.565933 -5.524588 37,000 120 598 128
2018-09-22 08:48:09 GMT 54.570721 -5.538441 36,975 120 598 128
2018-09-22 08:48:06 GMT 54.574631 -5.549927 37,000 120 598 128
2018-09-22 08:48:01 GMT 54.583057 -5.574480 36,975 120 598 128
2018-09-22 08:47:58 GMT 54.586166 -5.583478 36,975 120 598 128
2018-09-22 08:47:55 GMT 54.589249 -5.592540 36,975 120 598 128
2018-09-22 08:47:51 GMT 54.595951 -5.612183 36,975 120 598 128
2018-09-22 08:47:48 GMT 54.601273 -5.627827 36,975 120 598 128
2018-09-22 08:47:45 GMT 54.603821 -5.635154 36,975 120 598 128
2018-09-22 08:47:40 GMT 54.610794 -5.655697 36,950 120 598 128
2018-09-22 08:47:37 GMT 54.615280 -5.668865 36,950 120 598 64
2018-09-22 08:47:33 GMT 54.620068 -5.682761 36,950 120 598 64
2018-09-22 08:47:30 GMT 54.624802 -5.696734 36,950 120 598 64
2018-09-22 08:47:27 GMT 54.629562 -5.710643 36,950 120 598 64
2018-09-22 08:47:24 GMT 54.633774 -5.722988 36,950 120 598 64
2018-09-22 08:47:19 GMT 54.640224 -5.741855 36,950 120 598 64
2018-09-22 08:47:16 GMT 54.644135 -5.753340 36,950 120 598 0
2018-09-22 08:47:13 GMT 54.649162 -5.768155 36,950 120 598 64
2018-09-22 08:47:10 GMT 54.652267 -5.777193 36,950 120 598 64
2018-09-22 08:47:07 GMT 54.657589 -5.792791 36,950 120 599 0
2018-09-22 08:47:04 GMT 54.667084 -5.820673 36,950 120 598 0
2018-09-22 08:47:00 GMT 54.667084 -5.820673 36,950 120 599 0
2018-09-22 08:46:57 GMT 54.671265 -5.833013 36,950 120 599 64
2018-09-22 08:46:54 GMT 54.675465 -5.845392 36,950 120 600 0
2018-09-22 08:46:51 GMT 54.679420 -5.856878 36,950 120 599 0
2018-09-22 08:46:47 GMT 54.686966 -5.879140 36,950 120 600 0
2018-09-22 08:46:44 GMT 54.689476 -5.886591 36,950 120 601 -64
2018-09-22 08:46:39 GMT 54.695343 -5.903940 36,950 120 600 -64
2018-09-22 08:46:36 GMT 54.700695 -5.919633 36,950 120 601 -64
2018-09-22 08:46:33 GMT 54.703766 -5.928659 36,950 120 601 -64
2018-09-22 08:46:29 GMT 54.709396 -5.945219 36,975 120 601 -64
2018-09-22 08:46:26 GMT 54.715530 -5.963395 36,975 120 602 -64
2018-09-22 08:46:23 GMT 54.718060 -5.970903 36,975 120 602 -64
2018-09-22 08:46:19 GMT 54.723953 -5.988276 36,975 120 602 -64
2018-09-22 08:46:16 GMT 54.728989 -6.003221 36,975 120 601 -64
2018-09-22 08:46:13 GMT 54.732330 -6.013157 36,975 120 601 -64
2018-09-22 08:46:09 GMT 54.742683 -6.043812 36,975 120 602 -64
2018-09-22 08:46:06 GMT 54.742683 -6.043812 36,975 120 602 -64
2018-09-22 08:46:03 GMT 54.746037 -6.053800 36,975 120 602 -64
2018-09-22 08:45:59 GMT 54.758057 -6.089495 36,975 120 602 -64
2018-09-22 08:45:56 GMT 54.758057 -6.089495 36,975 120 602 -64
2018-09-22 08:45:53 GMT 54.760849 -6.097816 36,975 120 602 -64
2018-09-22 08:45:49 GMT 54.772293 -6.131869 37,000 120 602 -64
2018-09-22 08:45:45 GMT 54.772293 -6.131869 37,000 120 601 -64
2018-09-22 08:45:42 GMT 54.775085 -6.140192 36,975 120 602 -64
2018-09-22 08:45:39 GMT 54.780113 -6.155090 37,000 120 603 -64
2018-09-22 08:45:35 GMT 54.786530 -6.174236 37,000 120 602 -64
2018-09-22 08:45:29 GMT 54.794590 -6.198370 37,000 120 602 -64
2018-09-22 08:45:25 GMT 54.800446 -6.215838 37,000 120 602 -64
2018-09-22 08:45:22 GMT 54.803528 -6.225003 37,000 120 603 -64
2018-09-22 08:45:18 GMT 54.808777 -6.240800 37,000 120 603 -64
2018-09-22 08:45:15 GMT 54.814911 -6.259137 37,025 120 603 -64
2018-09-22 08:45:12 GMT 54.817448 -6.266701 37,025 120 603 -64
2018-09-22 08:45:08 GMT 54.822739 -6.282483 37,025 120 603 -64
2018-09-22 08:45:05 GMT 54.828278 -6.299205 37,025 120 603 -64
2018-09-22 08:45:02 GMT 54.831924 -6.310064 37,025 120 603 -64
2018-09-22 08:44:58 GMT 54.838024 -6.328458 37,025 120 603 0
2018-09-22 08:44:55 GMT 54.842194 -6.340969 37,025 119 604 -64
2018-09-22 08:44:52 GMT 54.845844 -6.351845 37,050 119 604 -64
2018-09-22 08:44:48 GMT 54.851383 -6.368658 37,050 119 604 -64
2018-09-22 08:44:44 GMT 54.856411 -6.383722 37,050 119 604 -64
2018-09-22 08:44:41 GMT 54.860325 -6.395458 37,050 120 605 -64
2018-09-22 08:44:38 GMT 54.866180 -6.413027 37,050 120 605 -64
2018-09-22 08:44:33 GMT 54.871765 -6.429829 37,050 120 605 0
2018-09-22 08:44:30 GMT 54.876522 -6.444064 37,050 120 605 0
2018-09-22 08:44:27 GMT 54.880432 -6.455883 37,050 120 605 0
2018-09-22 08:44:23 GMT 54.886021 -6.472612 37,050 119 606 64
2018-09-22 08:44:20 GMT 54.889420 -6.482683 37,050 119 606 64
2018-09-22 08:44:17 GMT 54.895004 -6.499495 37,050 119 606 64
2018-09-22 08:44:13 GMT 54.899734 -6.513762 37,050 119 606 64
2018-09-22 08:44:10 GMT 54.903625 -6.525556 37,050 119 607 64
2018-09-22 08:44:07 GMT 54.908363 -6.539945 37,050 119 607 64
2018-09-22 08:44:04 GMT 54.913101 -6.554233 37,050 119 607 64
2018-09-22 08:44:01 GMT 54.916698 -6.565247 37,050 119 607 64
2018-09-22 08:43:58 GMT 54.921982 -6.581295 37,050 119 607 64
2018-09-22 08:43:51 GMT 54.930862 -6.608357 37,050 119 606 64
2018-09-22 08:43:48 GMT 54.936157 -6.624340 37,050 119 607 64
2018-09-22 08:43:42 GMT 54.943371 -6.646312 37,050 119 607 0
2018-09-22 08:43:39 GMT 54.947571 -6.658927 37,050 119 607 0
2018-09-22 08:43:36 GMT 54.951752 -6.671614 37,050 119 607 0
2018-09-22 08:43:33 GMT 54.956779 -6.686845 37,050 119 607 0
2018-09-22 08:43:30 GMT 54.959572 -6.695251 37,050 119 607 -64
2018-09-22 08:43:27 GMT 54.964325 -6.709658 37,075 119 607 -64
2018-09-22 08:43:23 GMT 54.971256 -6.730791 37,050 119 607 -64
2018-09-22 08:43:20 GMT 54.974049 -6.739197 37,075 119 607 -64
2018-09-22 08:43:17 GMT 54.977913 -6.751099 37,075 119 607 -64
2018-09-22 08:43:11 GMT 54.989506 -6.786638 37,075 119 606 -64
2018-09-22 08:43:05 GMT 54.994217 -6.801022 37,075 119 605 0
2018-09-22 08:43:02 GMT 54.998909 -6.815352 37,075 119 605 128
2018-09-22 08:42:59 GMT 55.003006 -6.828084 37,050 119 605 128
2018-09-22 08:42:55 GMT 55.007446 -6.841574 37,050 119 605 128
2018-09-22 08:42:52 GMT 55.012688 -6.857633 37,050 119 605 64
2018-09-22 08:42:49 GMT 55.016235 -6.868636 37,050 119 605 64
2018-09-22 08:42:45 GMT 55.023972 -6.892305 37,050 119 605 128
2018-09-22 08:42:41 GMT 55.027817 -6.904180 37,050 119 605 128
2018-09-22 08:42:38 GMT 55.031113 -6.914278 37,050 119 605 128
2018-09-22 08:42:35 GMT 55.035507 -6.927849 37,025 119 605 128
2018-09-22 08:42:31 GMT 55.041271 -6.945607 37,025 119 605 128
2018-09-22 08:42:28 GMT 55.045395 -6.958304 37,025 119 605 128
2018-09-22 08:42:25 GMT 55.049511 -6.970992 37,025 119 604 128
2018-09-22 08:42:22 GMT 55.053635 -6.983670 37,025 119 604 128
2018-09-22 08:42:19 GMT 55.058823 -6.999789 37,025 119 604 128
2018-09-22 08:42:16 GMT 55.062683 -7.011608 37,000 119 604 128
2018-09-22 08:42:13 GMT 55.065674 -7.020991 37,000 119 604 128
2018-09-22 08:42:10 GMT 55.070320 -7.035328 37,000 119 604 128
2018-09-22 08:42:07 GMT 55.073364 -7.044660 37,000 119 604 128
2018-09-22 08:42:04 GMT 55.078560 -7.060797 37,000 119 604 128
2018-09-22 08:41:59 GMT 55.086456 -7.085293 36,975 119 604 64
2018-09-22 08:41:55 GMT 55.090569 -7.098000 36,975 119 603 64
2018-09-22 08:41:50 GMT 55.097645 -7.120056 36,975 119 604 64
2018-09-22 08:41:47 GMT 55.101196 -7.131096 36,975 119 603 64
2018-09-22 08:41:44 GMT 55.106094 -7.146283 36,975 119 603 0
2018-09-22 08:41:40 GMT 55.111286 -7.162420 36,975 119 603 0
2018-09-22 08:41:37 GMT 55.115341 -7.175122 36,975 119 603 0
2018-09-22 08:41:34 GMT 55.118591 -7.185220 36,975 119 602 0
2018-09-22 08:41:29 GMT 55.125687 -7.207193 36,975 119 602 0
2018-09-22 08:41:26 GMT 55.129486 -7.219068 36,975 119 602 0
2018-09-22 08:41:19 GMT 55.139542 -7.250311 36,975 119 601 0
2018-09-22 08:41:16 GMT 55.143585 -7.263013 36,975 119 602 0
2018-09-22 08:41:11 GMT 55.150589 -7.285066 36,975 119 600 0
2018-09-22 08:41:08 GMT 55.154625 -7.297752 36,975 119 600 0
2018-09-22 08:41:05 GMT 55.158142 -7.308736 36,975 119 600 0
2018-09-22 08:41:01 GMT 55.164356 -7.328131 36,975 119 599 0
2018-09-22 08:40:58 GMT 55.167568 -7.338285 36,975 119 599 0
2018-09-22 08:40:55 GMT 55.178322 -7.372076 36,975 119 599 64
2018-09-22 08:40:51 GMT 55.180756 -7.379662 36,975 119 599 64
2018-09-22 08:40:45 GMT 55.185562 -7.394930 36,975 119 599 64
2018-09-22 08:40:39 GMT 55.193619 -7.420214 36,950 118 598 64
2018-09-22 08:40:36 GMT 55.197639 -7.432917 36,975 118 598 64
2018-09-22 08:40:33 GMT 55.200851 -7.443071 36,950 118 599 0
2018-09-22 08:40:29 GMT 55.208633 -7.467633 36,950 118 599 0
2018-09-22 08:40:25 GMT 55.216095 -7.491302 36,950 118 599 0
2018-09-22 08:40:19 GMT 55.219566 -7.502330 36,950 118 599 0
2018-09-22 08:40:16 GMT 55.223335 -7.514232 36,950 118 599 0
2018-09-22 08:40:13 GMT 55.227859 -7.528624 36,950 118 599 0
2018-09-22 08:40:09 GMT 55.232971 -7.544694 36,950 118 599 0
2018-09-22 08:40:06 GMT 55.237255 -7.558261 36,950 118 599 0
2018-09-22 08:40:03 GMT 55.240978 -7.570079 36,975 118 600 64
2018-09-22 08:40:00 GMT 55.246891 -7.588723 36,950 118 600 0
2018-09-22 08:39:56 GMT 55.251175 -7.602289 36,950 119 599 0
2018-09-22 08:39:53 GMT 55.264675 -7.644653 36,975 119 600 -64
2018-09-22 08:39:46 GMT 55.264675 -7.644653 36,975 119 600 -64
2018-09-22 08:39:42 GMT 55.269005 -7.658137 36,975 119 600 -64
2018-09-22 08:39:38 GMT 55.276035 -7.680192 36,975 119 600 -128
2018-09-22 08:39:35 GMT 55.278732 -7.688682 37,000 119 600 -128
2018-09-22 08:39:32 GMT 55.283016 -7.702248 37,000 119 600 -128
2018-09-22 08:39:28 GMT 55.289749 -7.723469 37,000 119 600 -128
2018-09-22 08:39:25 GMT 55.292999 -7.733648 37,000 119 600 -64
2018-09-22 08:39:22 GMT 55.296471 -7.744695 37,025 118 601 -64
2018-09-22 08:39:18 GMT 55.304012 -7.768499 37,025 118 601 -64
2018-09-22 08:39:15 GMT 55.306412 -7.776139 37,025 118 602 -64
2018-09-22 08:39:12 GMT 55.310436 -7.788890 37,025 118 602 -64
2018-09-22 08:39:07 GMT 55.316906 -7.809365 37,025 118 602 -64
2018-09-22 08:39:04 GMT 55.324402 -7.833252 37,025 118 603 -64
2018-09-22 08:38:57 GMT 55.330780 -7.853810 37,050 118 603 0
2018-09-22 08:38:54 GMT 55.333481 -7.862382 37,050 118 604 0
2018-09-22 08:38:51 GMT 55.338272 -7.877780 37,050 118 604 0
2018-09-22 08:38:46 GMT 55.345257 -7.900085 37,050 118 604 0
2018-09-22 08:38:43 GMT 55.349541 -7.913818 37,050 118 605 0
2018-09-22 08:38:40 GMT 55.352242 -7.922391 37,050 118 605 0
2018-09-22 08:38:37 GMT 55.356522 -7.936207 37,050 118 605 0
2018-09-22 08:38:34 GMT 55.360806 -7.949940 37,050 118 606 0
2018-09-22 08:38:30 GMT 55.365875 -7.966300 37,050 118 606 0
2018-09-22 08:38:26 GMT 55.372284 -7.987061 37,050 118 607 0
2018-09-22 08:38:23 GMT 55.377377 -8.003457 37,050 118 607 0
2018-09-22 08:38:20 GMT 55.380077 -8.012113 37,050 118 608 0
2018-09-22 08:38:15 GMT 55.386501 -8.032920 37,050 118 607 0
2018-09-22 08:38:12 GMT 55.394302 -8.057987 37,050 118 607 0
2018-09-22 08:38:05 GMT 55.399399 -8.074369 37,050 118 607 64
2018-09-22 08:38:02 GMT 55.404194 -8.089933 37,050 118 607 0
2018-09-22 08:37:59 GMT 55.407715 -8.101205 37,050 118 607 0
2018-09-22 08:37:56 GMT 55.415459 -8.126221 37,050 118 606 0
2018-09-22 08:37:53 GMT 55.415459 -8.126221 37,050 118 606 0
2018-09-22 08:37:48 GMT 55.422440 -8.148693 37,050 118 606 0
2018-09-22 08:37:45 GMT 55.426437 -8.161711 37,050 118 606 0
2018-09-22 08:37:42 GMT 55.431747 -8.178998 37,050 118 606 0
2018-09-22 08:37:39 GMT 55.434685 -8.188477 37,075 118 605 0
2018-09-22 08:37:35 GMT 55.440262 -8.206626 37,075 118 605 0
2018-09-22 08:37:31 GMT 55.445068 -8.222185 37,050 118 605 0
2018-09-22 08:37:28 GMT 55.449280 -8.236084 37,050 118 604 64
2018-09-22 08:37:25 GMT 55.453770 -8.250732 37,050 118 605 64
2018-09-22 08:37:22 GMT 55.456425 -8.259401 37,050 118 604 64
2018-09-22 08:37:18 GMT 55.462753 -8.280172 37,050 118 604 64
2018-09-22 08:37:13 GMT 55.469086 -8.300858 37,050 118 604 128
2018-09-22 08:37:10 GMT 55.473324 -8.314676 37,050 118 604 128
2018-09-22 08:37:06 GMT 55.479652 -8.335447 37,050 118 603 64
2018-09-22 08:37:02 GMT 55.483612 -8.348361 37,050 118 602 128
2018-09-22 08:36:58 GMT 55.489662 -8.368149 37,050 118 602 128
2018-09-22 08:36:55 GMT 55.492584 -8.377575 37,025 118 601 64
2018-09-22 08:36:52 GMT 55.497063 -8.392267 37,025 118 601 64
2018-09-22 08:36:49 GMT 55.500229 -8.402567 37,025 118 601 64
2018-09-22 08:36:46 GMT 55.503906 -8.414583 37,025 118 601 64
2018-09-22 08:36:42 GMT 55.510483 -8.436002 37,025 118 600 64
2018-09-22 08:36:39 GMT 55.513138 -8.444658 37,025 118 600 64
2018-09-22 08:36:35 GMT 55.519455 -8.465216 37,000 118 599 64
2018-09-22 08:36:32 GMT 55.527042 -8.490114 37,000 118 599 64
2018-09-22 08:36:26 GMT 55.530674 -8.502131 37,000 118 599 128
2018-09-22 08:36:21 GMT 55.536961 -8.522730 37,000 118 597 128
2018-09-22 08:36:13 GMT 55.548111 -8.559598 36,975 118 597 128
2018-09-22 08:36:09 GMT 55.553284 -8.576743 36,975 117 596 64
2018-09-22 08:36:05 GMT 55.557449 -8.590476 36,975 117 596 64
2018-09-22 08:36:01 GMT 55.563629 -8.611034 36,975 118 595 64
2018-09-22 08:35:55 GMT 55.570862 -8.635004 36,975 117 594 64
2018-09-22 08:35:51 GMT 55.577042 -8.655562 36,975 117 594 64
2018-09-22 08:35:48 GMT 55.579323 -8.663235 36,975 117 594 0
2018-09-22 08:35:44 GMT 55.585514 -8.683748 36,975 117 593 64
2018-09-22 08:35:40 GMT 55.594482 -8.713656 36,975 117 593 64
2018-09-22 08:35:33 GMT 55.599609 -8.730718 36,950 117 591 0
2018-09-22 08:35:30 GMT 55.602924 -8.741770 36,975 117 591 64
2018-09-22 08:35:24 GMT 55.610321 -8.766507 36,975 117 591 64
2018-09-22 08:35:20 GMT 55.615448 -8.783569 36,975 117 591 64
2018-09-22 08:35:17 GMT 55.620026 -8.798884 36,950 117 591 64
2018-09-22 08:35:12 GMT 55.626900 -8.821936 36,975 117 590 0
2018-09-22 08:35:09 GMT 55.629414 -8.830433 36,975 117 590 0
2018-09-22 08:35:03 GMT 55.639343 -8.863636 36,950 117 590 0
2018-09-22 08:34:59 GMT 55.642681 -8.874636 36,950 117 590 0
2018-09-22 08:34:55 GMT 55.647243 -8.889999 36,950 117 590 64
2018-09-22 08:34:48 GMT 55.656460 -8.920555 36,950 117 590 0
2018-09-22 08:34:43 GMT 55.668503 -8.960516 36,950 118 589 0
2018-09-22 08:34:39 GMT 55.668503 -8.960516 36,950 118 589 0
2018-09-22 08:34:33 GMT 55.676147 -8.985984 36,950 118 590 0
2018-09-22 08:34:29 GMT 55.681553 -9.003811 36,950 117 590 0
2018-09-22 08:34:22 GMT 55.689468 -9.030262 36,950 117 590 -64
2018-09-22 08:34:18 GMT 55.695053 -9.048989 36,950 117 590 -64
2018-09-22 08:34:14 GMT 55.699631 -9.064387 36,950 117 591 -64
2018-09-22 08:34:09 GMT 55.706455 -9.087496 36,975 117 591 -64
2018-09-22 08:34:05 GMT 55.713020 -9.109812 36,975 117 591 -64
2018-09-22 08:34:00 GMT 55.717850 -9.126060 36,975 117 591 -64
2018-09-22 08:33:57 GMT 55.722145 -9.140625 36,975 117 591 -64
2018-09-22 08:33:50 GMT 55.729980 -9.167175 37,000 117 591 -128
2018-09-22 08:33:47 GMT 55.734249 -9.181738 37,000 117 591 -128
2018-09-22 08:33:44 GMT 55.738037 -9.194641 37,000 117 591 -128
2018-09-22 08:33:37 GMT 55.746597 -9.223772 37,000 117 591 -64
2018-09-22 08:33:27 GMT 55.759384 -9.267654 37,025 117 591 -64
2018-09-22 08:33:20 GMT 55.769714 -9.302840 37,025 117 591 -64
2018-09-22 08:33:16 GMT 55.772980 -9.314003 37,025 117 591 -64
2018-09-22 08:33:12 GMT 55.778053 -9.331255 37,050 117 593 -64
2018-09-22 08:33:06 GMT 55.785595 -9.357004 37,050 117 593 0
2018-09-22 08:33:01 GMT 55.791412 -9.376831 37,050 117 593 0
2018-09-22 08:32:56 GMT 55.798462 -9.400968 37,050 117 593 0
2018-09-22 08:32:53 GMT 55.803799 -9.419060 37,050 117 593 0
2018-09-22 08:32:48 GMT 55.808578 -9.435425 37,050 117 593 0
2018-09-22 08:32:45 GMT 55.811897 -9.446611 37,050 117 593 0
2018-09-22 08:32:35 GMT 55.824280 -9.488942 37,050 117 593 64
2018-09-22 08:32:31 GMT 55.829586 -9.507036 37,050 117 593 64
2018-09-22 08:32:25 GMT 55.837418 -9.533886 37,050 117 594 64
2018-09-22 08:32:15 GMT 55.850349 -9.577932 37,050 117 593 64
2018-09-22 08:32:11 GMT 55.855423 -9.595184 37,050 117 593 0
2018-09-22 08:32:04 GMT 55.864792 -9.627103 37,050 117 593 0
2018-09-22 08:32:01 GMT 55.867573 -9.636555 37,050 117 593 0
2018-09-22 08:31:54 GMT 55.876698 -9.667625 37,050 117 593 0
2018-09-22 08:31:44 GMT 55.889053 -9.710000 37,050 117 593 0
2018-09-22 08:31:34 GMT 55.901791 -9.754057 37,050 117 592 64
2018-09-22 08:31:23 GMT 55.915195 -9.800835 37,050 116 591 64
2018-09-22 08:31:12 GMT 55.928558 -9.847612 37,050 116 590 64
2018-09-22 08:31:03 GMT 55.940941 -9.890785 37,025 117 589 64
2018-09-22 08:30:51 GMT 55.955322 -9.940739 37,025 117 588 64
2018-09-22 08:30:42 GMT 55.965912 -9.977833 37,000 117 587 64
2018-09-22 08:30:33 GMT 55.978271 -10.020780 37,000 117 586 64
2018-09-22 08:30:22 GMT 55.990631 -10.063726 36,975 117 586 64
2018-09-22 08:30:12 GMT 56.003597 -10.109224 36,975 116 584 64
2018-09-22 08:30:01 GMT 56.016495 -10.154696 36,975 116 583 64
2018-09-22 08:29:51 GMT 56.028877 -10.198402 36,975 116 582 0
2018-09-22 08:29:41 GMT 56.040710 -10.240340 36,975 116 580 0
2018-09-22 08:29:32 GMT 56.051285 -10.277960 36,975 116 580 0
2018-09-22 08:29:29 GMT 56.054852 -10.290842 36,975 116 580 0
2018-09-22 08:29:23 GMT 56.062775 -10.319075 36,975 116 579 0
2018-09-22 08:29:20 GMT 56.065933 -10.330153 36,975 116 579 0
2018-09-22 08:29:10 GMT 56.077652 -10.372009 36,975 116 579 128
2018-09-22 08:29:03 GMT 56.086834 -10.405512 36,950 114 582 64
2018-09-22 08:28:59 GMT 56.090240 -10.418535 36,950 114 582 64
2018-09-22 08:28:39 GMT 56.111649 -10.510139 36,950 111 585 0
2018-09-22 08:27:30 GMT 56.179146 -10.824709 37,025 110 586 -64
2018-09-22 08:27:25 GMT 56.183010 -10.842905 37,025 110 587 -64
2018-09-22 08:26:15 GMT 56.250000 -11.160278 37,050 110 588 64
2018-09-22 08:26:05 GMT 56.259979 -11.207636 37,050 110 588 0
2018-09-22 08:25:55 GMT 56.269180 -11.251332 37,050 110 587 0
2018-09-22 08:25:45 GMT 56.278954 -11.297808 37,050 110 586 64
2018-09-22 08:25:35 GMT 56.289001 -11.346047 37,050 110 586 64
2018-09-22 08:25:25 GMT 56.298431 -11.391491 37,050 110 585 64
2018-09-22 08:25:14 GMT 56.308228 -11.438765 37,025 110 583 64
2018-09-22 08:25:04 GMT 56.318199 -11.486893 37,025 110 583 64
2018-09-22 08:24:54 GMT 56.327511 -11.532211 37,025 110 582 64
2018-09-22 08:24:43 GMT 56.337147 -11.579332 37,000 110 581 64
2018-09-22 08:24:33 GMT 56.346783 -11.626453 37,000 110 580 64
2018-09-22 08:24:23 GMT 56.356201 -11.672557 37,000 110 579 64
2018-09-22 08:23:56 GMT 56.380253 -11.790733 36,975 110 576 0
2018-09-22 08:23:52 GMT 56.384491 -11.811468 36,975 110 576 64
2018-09-22 08:23:42 GMT 56.393753 -11.857338 36,975 109 575 0
We lost coverage of the aircraft here for a total of 312 minutes
2018-09-22 03:11:46 GMT 49.846252 -93.198395 33,000 56 535 0
2018-09-22 03:11:40 GMT 49.838314 -93.216843 33,000 56 535 0
2018-09-22 03:11:31 GMT 49.824627 -93.248611 33,000 56 534 0
2018-09-22 03:10:16 GMT 49.723572 -93.481651 33,000 56 531 -64
2018-09-22 03:09:59 GMT 49.700333 -93.535004 33,000 55 530 -64
2018-09-22 03:09:55 GMT 49.694550 -93.548149 33,000 55 530 -64
2018-09-22 03:09:41 GMT 49.675919 -93.590652 33,000 55 530 -64
2018-09-22 03:09:32 GMT 49.663284 -93.619415 33,000 55 530 -64
2018-09-22 03:09:23 GMT 49.651501 -93.646202 33,000 56 529 0
2018-09-22 03:09:09 GMT 49.632320 -93.689995 32,975 56 529 0
2018-09-22 03:09:03 GMT 49.623322 -93.710564 32,975 56 529 0
2018-09-22 03:08:53 GMT 49.608536 -93.744240 32,975 55 530 0
2018-09-22 03:08:45 GMT 49.598385 -93.767349 32,975 55 530 0
2018-09-22 03:08:41 GMT 49.594009 -93.777290 32,975 55 529 0
2018-09-22 03:08:35 GMT 49.583862 -93.800331 32,975 55 529 0
2018-09-22 03:08:32 GMT 49.579205 -93.810921 32,975 55 529 -64
2018-09-22 03:08:21 GMT 49.565517 -93.842026 32,975 55 529 -64
2018-09-22 03:08:13 GMT 49.555344 -93.864944 32,975 55 528 -64
2018-09-22 03:08:03 GMT 49.540512 -93.898483 33,000 55 528 -64
2018-09-22 03:07:53 GMT 49.527065 -93.928802 33,000 55 528 -64
2018-09-22 03:07:50 GMT 49.522385 -93.939323 33,000 55 528 -64
2018-09-22 03:07:42 GMT 49.512215 -93.962128 33,000 55 527 -64
2018-09-22 03:07:32 GMT 49.498215 -93.993675 33,000 55 526 -64
2018-09-22 03:07:21 GMT 49.483681 -94.026413 33,000 55 527 -64
2018-09-22 03:07:07 GMT 49.464455 -94.069618 33,000 55 527 -64
2018-09-22 03:07:01 GMT 49.454865 -94.091179 33,000 55 526 -64
2018-09-22 03:06:47 GMT 49.437035 -94.131233 33,025 55 526 -64
2018-09-22 03:06:40 GMT 49.426300 -94.155228 33,025 55 526 -64
2018-09-22 03:06:29 GMT 49.411972 -94.187126 33,025 55 525 -64
2018-09-22 03:06:25 GMT 49.407288 -94.197571 33,025 55 525 -64
2018-09-22 03:06:18 GMT 49.397644 -94.219032 33,025 55 525 -64
2018-09-22 03:06:15 GMT 49.392948 -94.229446 33,025 55 525 -64
2018-09-22 03:06:07 GMT 49.381962 -94.254021 33,025 55 526 -64
2018-09-22 03:05:57 GMT 49.368229 -94.284668 33,025 55 525 0
2018-09-22 03:05:54 GMT 49.364090 -94.293823 33,025 55 525 0
2018-09-22 03:05:47 GMT 49.354202 -94.315933 33,025 55 525 0
2018-09-22 03:05:43 GMT 49.349258 -94.326920 33,025 55 525 0
2018-09-22 03:05:37 GMT 49.340206 -94.347115 33,025 55 525 0
2018-09-22 03:05:27 GMT 49.325356 -94.380150 33,025 55 525 0
2018-09-22 03:05:23 GMT 49.320694 -94.390587 33,025 55 525 0
2018-09-22 03:05:15 GMT 49.311310 -94.411362 33,025 55 524 0
2018-09-22 03:05:11 GMT 49.304718 -94.426010 33,000 55 524 0
2018-09-22 03:05:06 GMT 49.296726 -94.443680 33,000 55 524 0
2018-09-22 03:05:02 GMT 49.291233 -94.455894 33,000 55 524 0
2018-09-22 03:04:55 GMT 49.282654 -94.474815 33,000 55 525 0
2018-09-22 03:04:51 GMT 49.277161 -94.487000 33,000 55 524 0
2018-09-22 03:04:45 GMT 49.267490 -94.508301 33,000 55 524 0
2018-09-22 03:04:41 GMT 49.262508 -94.519211 33,000 55 524 0
2018-09-22 03:04:34 GMT 49.253952 -94.538132 33,000 55 524 0
2018-09-22 03:04:29 GMT 49.247360 -94.552704 33,000 55 524 0
2018-09-22 03:04:24 GMT 49.239326 -94.570312 33,000 55 524 0
2018-09-22 03:04:19 GMT 49.233273 -94.583687 33,000 55 524 0
2018-09-22 03:04:13 GMT 49.224987 -94.601898 33,000 55 523 0
2018-09-22 03:04:09 GMT 49.218891 -94.615273 33,000 55 523 0
2018-09-22 03:04:02 GMT 49.210045 -94.634644 33,000 55 523 0
2018-09-22 03:03:59 GMT 49.203945 -94.648010 33,000 55 523 0
2018-09-22 03:03:52 GMT 49.195404 -94.666794 33,000 55 523 0
2018-09-22 03:03:47 GMT 49.189610 -94.679527 33,000 55 523 0
2018-09-22 03:03:42 GMT 49.181580 -94.697075 33,000 55 523 0
2018-09-22 03:03:38 GMT 49.175491 -94.710457 32,975 55 523 0
2018-09-22 03:03:31 GMT 49.166378 -94.730408 32,975 55 523 0
2018-09-22 03:03:26 GMT 49.160839 -94.742554 32,975 55 524 0
2018-09-22 03:03:20 GMT 49.152283 -94.761375 32,975 55 524 0
2018-09-22 03:03:16 GMT 49.146240 -94.774689 32,975 55 524 0
2018-09-22 03:03:10 GMT 49.137657 -94.793510 32,975 55 523 0
2018-09-22 03:03:06 GMT 49.131603 -94.806808 32,975 55 523 0
2018-09-22 03:03:00 GMT 49.123581 -94.824333 32,975 55 523 -64
2018-09-22 03:02:55 GMT 49.116943 -94.838844 32,975 55 523 0
2018-09-22 03:02:49 GMT 49.108932 -94.856392 32,975 55 523 -64
2018-09-22 03:02:45 GMT 49.102570 -94.870323 32,975 55 523 -64
2018-09-22 03:02:38 GMT 49.093735 -94.889694 32,975 55 523 -64
2018-09-22 03:02:34 GMT 49.087891 -94.902359 32,975 55 523 -64
2018-09-22 03:02:28 GMT 49.079910 -94.919907 32,975 55 522 -64
2018-09-22 03:02:23 GMT 49.073555 -94.933731 32,975 55 523 -64
2018-09-22 03:02:18 GMT 49.065220 -94.951797 33,000 54 523 -64
2018-09-22 03:02:13 GMT 49.058807 -94.965675 33,000 54 523 -64
2018-09-22 03:02:07 GMT 49.050743 -94.983093 33,000 54 522 -64
2018-09-22 03:02:02 GMT 49.044388 -94.996880 33,000 54 523 -64
2018-09-22 03:01:56 GMT 49.036057 -95.014908 33,000 54 523 -64
2018-09-22 03:01:52 GMT 49.029922 -95.028145 33,000 54 523 -64
2018-09-22 03:01:46 GMT 49.021881 -95.045540 33,000 54 522 -64
2018-09-22 03:01:42 GMT 49.015457 -95.059341 33,025 54 522 0
2018-09-22 03:01:35 GMT 49.006844 -95.077927 33,025 54 522 0
2018-09-22 03:01:31 GMT 49.000443 -95.091743 33,025 54 522 0
2018-09-22 03:01:26 GMT 48.992367 -95.109146 33,025 54 523 0
2018-09-22 03:01:21 GMT 48.986267 -95.122299 33,025 54 523 0
2018-09-22 03:01:14 GMT 48.977890 -95.140305 33,000 54 523 0
2018-09-22 03:01:10 GMT 48.971512 -95.154137 33,000 54 523 0
2018-09-22 03:01:05 GMT 48.963135 -95.172096 33,000 54 523 0
2018-09-22 03:01:00 GMT 48.956150 -95.187065 33,000 54 523 0
2018-09-22 03:00:54 GMT 48.948578 -95.203224 33,000 54 523 0
2018-09-22 03:00:48 GMT 48.940750 -95.219986 33,000 54 523 0
2018-09-22 03:00:44 GMT 48.934067 -95.234283 33,000 54 523 0
2018-09-22 03:00:38 GMT 48.925938 -95.251678 33,000 54 523 0
2018-09-22 03:00:32 GMT 48.918411 -95.267799 33,000 54 523 0
2018-09-22 03:00:27 GMT 48.912231 -95.280975 33,000 54 523 0
2018-09-22 03:00:23 GMT 48.904999 -95.296539 33,000 54 523 0
2018-09-22 03:00:18 GMT 48.897446 -95.312683 33,000 54 523 -64
2018-09-22 03:00:12 GMT 48.890137 -95.328224 33,000 54 522 -64
2018-09-22 03:00:07 GMT 48.883163 -95.343086 33,000 54 523 -64
2018-09-22 03:00:02 GMT 48.875568 -95.359230 33,000 54 523 -64
2018-09-22 02:59:57 GMT 48.867699 -95.375931 33,000 54 523 -64
2018-09-22 02:59:51 GMT 48.860687 -95.390839 33,000 54 522 -64
2018-09-22 02:59:45 GMT 48.853409 -95.406326 33,000 54 522 -64
2018-09-22 02:59:40 GMT 48.846085 -95.421822 33,025 54 521 -64
2018-09-22 02:59:36 GMT 48.839069 -95.436646 33,025 54 521 -64
2018-09-22 02:59:30 GMT 48.831528 -95.452744 33,025 54 521 -64
2018-09-22 02:59:25 GMT 48.823940 -95.468803 33,025 54 521 -64
2018-09-22 02:59:19 GMT 48.815826 -95.486053 33,025 54 521 -64
2018-09-22 02:59:15 GMT 48.809418 -95.499741 33,025 54 521 -64
2018-09-22 02:59:09 GMT 48.802109 -95.515205 33,025 54 521 -64
2018-09-22 02:59:03 GMT 48.794540 -95.531265 33,025 54 521 -64
2018-09-22 02:58:58 GMT 48.787262 -95.546684 33,025 54 521 -64
2018-09-22 02:58:54 GMT 48.779716 -95.562698 33,025 54 521 -64
2018-09-22 02:58:48 GMT 48.772156 -95.578728 33,025 54 521 -64
2018-09-22 02:58:43 GMT 48.765427 -95.592957 33,050 54 521 -64
2018-09-22 02:58:37 GMT 48.757835 -95.608955 33,050 54 521 -64
2018-09-22 02:58:33 GMT 48.750275 -95.624931 33,050 54 521 -64
2018-09-22 02:58:27 GMT 48.743546 -95.639153 33,050 54 521 0
2018-09-22 02:58:22 GMT 48.736004 -95.655144 33,050 54 521 0
2018-09-22 02:58:16 GMT 48.728439 -95.671196 33,050 54 521 0
2018-09-22 02:58:12 GMT 48.720875 -95.687157 33,050 54 521 0
2018-09-22 02:58:05 GMT 48.713005 -95.703781 33,050 54 521 -64
2018-09-22 02:58:00 GMT 48.706303 -95.718025 33,050 54 521 0
2018-09-22 02:57:54 GMT 48.696487 -95.738739 33,050 54 521 0
2018-09-22 02:57:51 GMT 48.691174 -95.749969 33,050 54 521 0
2018-09-22 02:57:45 GMT 48.684471 -95.764206 33,050 54 521 0
2018-09-22 02:57:39 GMT 48.676601 -95.780762 33,050 54 519 64
2018-09-22 02:57:34 GMT 48.668781 -95.797310 33,050 54 520 -64
2018-09-22 02:57:28 GMT 48.661472 -95.812637 33,050 54 520 -64
2018-09-22 02:57:25 GMT 48.655014 -95.826134 33,050 54 520 -64
2018-09-22 02:57:19 GMT 48.646591 -95.843811 33,050 54 519 0
2018-09-22 02:57:14 GMT 48.640663 -95.856148 33,050 54 519 64
2018-09-22 02:57:08 GMT 48.631943 -95.874306 33,050 54 519 64
2018-09-22 02:57:04 GMT 48.625488 -95.887802 33,050 54 519 64
2018-09-22 02:56:57 GMT 48.617016 -95.905365 33,025 54 519 64
2018-09-22 02:56:53 GMT 48.610825 -95.918236 33,025 54 519 64
2018-09-22 02:56:47 GMT 48.602646 -95.935226 33,000 54 519 64
2018-09-22 02:56:36 GMT 48.587448 -95.966774 33,000 54 519 64
2018-09-22 02:56:26 GMT 48.571655 -95.999451 32,975 53 516 0
2018-09-22 02:56:21 GMT 48.564598 -96.014076 32,975 53 517 0
2018-09-22 02:56:15 GMT 48.556683 -96.030334 32,975 53 517 0
2018-09-22 02:56:10 GMT 48.551052 -96.041977 32,975 53 516 0
2018-09-22 02:56:04 GMT 48.542313 -96.059944 32,975 53 516 0
2018-09-22 02:55:51 GMT 48.522629 -96.100510 32,975 53 515 0
2018-09-22 02:55:43 GMT 48.497955 -96.151283 32,950 53 515 64
2018-09-22 02:55:33 GMT 48.497955 -96.151283 32,950 53 515 64
2018-09-22 02:55:21 GMT 48.482803 -96.182411 32,950 53 515 64
2018-09-22 02:55:11 GMT 48.467651 -96.213547 32,950 53 514 64
2018-09-22 02:54:59 GMT 48.448822 -96.252235 32,950 53 515 64
2018-09-22 02:54:50 GMT 48.438766 -96.273048 32,950 53 516 -64
2018-09-22 02:54:45 GMT 48.431458 -96.288155 32,950 53 516 -64
2018-09-22 02:54:40 GMT 48.422474 -96.306656 32,975 53 516 -128
2018-09-22 02:54:37 GMT 48.419121 -96.313599 32,950 53 516 -128
2018-09-22 02:54:29 GMT 48.408737 -96.335098 32,975 53 516 -64
2018-09-22 02:54:26 GMT 48.403946 -96.344963 32,975 53 516 -64
2018-09-22 02:54:19 GMT 48.393539 -96.366364 32,975 53 517 -64
2018-09-22 02:54:13 GMT 48.386765 -96.380310 32,975 53 517 -64
2018-09-22 02:54:08 GMT 48.378891 -96.396507 32,975 53 517 -64
2018-09-22 02:54:04 GMT 48.373547 -96.407486 33,000 53 517 -64
2018-09-22 02:53:58 GMT 48.363956 -96.427216 33,000 53 518 -64
2018-09-22 02:53:47 GMT 48.349594 -96.456863 32,975 54 519 0
2018-09-22 02:53:43 GMT 48.343964 -96.468483 32,975 54 519 0
2018-09-22 02:53:37 GMT 48.334072 -96.488869 32,975 53 519 0
2018-09-22 02:53:33 GMT 48.330368 -96.496445 32,975 53 520 0
2018-09-22 02:53:26 GMT 48.319874 -96.517929 32,975 53 520 -64
2018-09-22 02:53:16 GMT 48.304184 -96.549896 33,000 53 521 -64
2018-09-22 02:53:10 GMT 48.297913 -96.562637 33,000 53 521 -128
2018-09-22 02:53:05 GMT 48.289902 -96.578911 33,000 53 521 -64
2018-09-22 02:53:02 GMT 48.285324 -96.588203 33,000 53 521 -64
2018-09-22 02:52:54 GMT 48.273880 -96.611443 33,000 53 522 -64
2018-09-22 02:52:50 GMT 48.269039 -96.621361 33,025 53 522 -64
2018-09-22 02:52:41 GMT 48.255615 -96.648697 33,025 53 522 -64
2018-09-22 02:52:34 GMT 48.244125 -96.672012 33,025 53 522 -64
2018-09-22 02:52:30 GMT 48.240692 -96.678986 33,025 53 522 -64
2018-09-22 02:52:23 GMT 48.228352 -96.704048 33,025 53 524 -64
2018-09-22 02:52:20 GMT 48.225769 -96.709267 33,025 53 524 -64
2018-09-22 02:52:09 GMT 48.210522 -96.740189 33,025 53 524 0
2018-09-22 02:52:00 GMT 48.195236 -96.771095 33,025 53 525 -64
2018-09-22 02:51:48 GMT 48.179626 -96.802582 33,025 53 526 0
2018-09-22 02:51:39 GMT 48.164612 -96.833000 33,025 53 526 0
2018-09-22 02:51:31 GMT 48.152748 -96.856949 33,025 53 527 0
2018-09-22 02:51:28 GMT 48.150146 -96.862198 33,025 53 527 0
2018-09-22 02:51:18 GMT 48.135086 -96.892616 33,025 53 526 0
2018-09-22 02:51:09 GMT 48.121468 -96.920052 33,000 53 526 0
2018-09-22 02:50:57 GMT 48.104012 -96.954979 33,025 53 526 0
2018-09-22 02:50:49 GMT 48.092102 -96.978859 33,025 53 526 0
2018-09-22 02:50:46 GMT 48.089485 -96.984138 33,025 53 526 0
2018-09-22 02:50:36 GMT 48.074066 -97.014977 33,025 53 526 0
2018-09-22 02:50:27 GMT 48.060699 -97.041756 33,000 53 526 0
2018-09-22 02:50:24 GMT 48.057220 -97.048759 33,000 53 526 0
2018-09-22 02:50:15 GMT 48.043259 -97.076637 33,000 53 525 0
2018-09-22 02:50:07 GMT 48.030689 -97.101608 33,000 53 525 0
2018-09-22 02:50:04 GMT 48.028061 -97.106850 33,000 53 525 0
2018-09-22 02:49:54 GMT 48.012627 -97.137589 33,000 53 525 -64
2018-09-22 02:49:46 GMT 48.000431 -97.161957 33,000 53 525 -64
2018-09-22 02:49:43 GMT 47.997498 -97.167732 33,025 53 525 -64
2018-09-22 02:49:35 GMT 47.984985 -97.192680 33,025 53 525 -64
2018-09-22 02:49:32 GMT 47.982651 -97.197281 33,025 53 525 -64
2018-09-22 02:49:21 GMT 47.966682 -97.229141 33,025 53 525 -64
2018-09-22 02:49:12 GMT 47.951843 -97.258667 33,050 53 524 -64
2018-09-22 02:49:01 GMT 47.936470 -97.289291 33,050 53 525 -64
2018-09-22 02:48:51 GMT 47.921631 -97.318680 33,050 53 524 0
2018-09-22 02:48:40 GMT 47.905605 -97.350349 33,050 53 524 0
2018-09-22 02:48:29 GMT 47.890778 -97.379723 33,050 53 525 0
2018-09-22 02:48:22 GMT 47.878838 -97.403374 33,050 53 525 0
2018-09-22 02:48:19 GMT 47.875347 -97.410278 33,050 53 524 0
2018-09-22 02:48:11 GMT 47.863998 -97.432732 33,050 53 524 0
2018-09-22 02:48:08 GMT 47.860821 -97.439079 33,050 53 524 0
2018-09-22 02:47:58 GMT 47.845085 -97.470070 33,050 52 523 0
2018-09-22 02:47:47 GMT 47.829956 -97.499863 33,050 52 522 0
2018-09-22 02:47:40 GMT 47.817204 -97.525002 33,050 52 521 0
2018-09-22 02:47:36 GMT 47.812820 -97.533600 33,050 52 521 0
2018-09-22 02:47:26 GMT 47.799744 -97.559227 33,050 52 520 0
2018-09-22 02:47:19 GMT 47.786385 -97.585426 33,025 52 520 0
2018-09-22 02:47:16 GMT 47.784348 -97.589424 33,025 52 519 0
2018-09-22 02:47:06 GMT 47.769287 -97.618881 33,025 52 519 0
2018-09-22 02:46:58 GMT 47.755966 -97.644974 33,025 52 519 0
2018-09-22 02:46:54 GMT 47.751343 -97.654106 33,025 52 518 0
2018-09-22 02:46:44 GMT 47.737225 -97.681839 33,025 52 518 0
2018-09-22 02:46:34 GMT 47.723099 -97.709587 33,000 52 516 64
2018-09-22 02:46:23 GMT 47.706081 -97.742828 33,000 52 516 64
2018-09-22 02:46:13 GMT 47.692207 -97.769798 32,975 52 515 64
2018-09-22 02:46:04 GMT 47.680058 -97.793320 32,975 52 514 0
2018-09-22 02:46:01 GMT 47.675449 -97.802261 32,975 52 514 0
2018-09-22 02:45:52 GMT 47.659901 -97.832474 32,975 52 513 0
2018-09-22 02:45:42 GMT 47.635227 -97.880440 32,975 52 511 0
2018-09-22 02:45:33 GMT 47.635227 -97.880440 32,975 52 512 0
2018-09-22 02:45:30 GMT 47.632389 -97.886002 32,975 52 512 0
2018-09-22 02:45:20 GMT 47.617447 -97.914871 32,950 52 511 0
2018-09-22 02:45:12 GMT 47.601990 -97.944801 32,950 52 511 0
2018-09-22 02:45:02 GMT 47.589615 -97.968658 32,950 52 510 0
2018-09-22 02:44:58 GMT 47.585884 -97.975861 32,950 52 511 0
2018-09-22 02:44:50 GMT 47.573502 -97.999626 32,950 52 511 0
2018-09-22 02:44:40 GMT 47.557892 -98.029427 32,950 52 512 0
2018-09-22 02:44:29 GMT 47.543243 -98.057770 32,950 52 512 0
2018-09-22 02:44:22 GMT 47.532623 -98.078316 32,950 52 512 0
2018-09-22 02:44:19 GMT 47.528595 -98.086075 32,950 52 513 -64
2018-09-22 02:44:14 GMT 47.522827 -98.097198 32,950 52 513 -64
2018-09-22 02:44:08 GMT 47.513355 -98.115585 32,950 52 513 -64
2018-09-22 02:44:05 GMT 47.508747 -98.124458 32,975 52 513 -64
2018-09-22 02:43:58 GMT 47.497513 -98.146156 32,975 52 513 -64
2018-09-22 02:43:47 GMT 47.483093 -98.173965 32,975 52 514 -64
2018-09-22 02:43:36 GMT 47.467484 -98.203972 33,000 52 513 -128
2018-09-22 02:43:26 GMT 47.452377 -98.232811 33,000 52 514 -128
2018-09-22 02:43:15 GMT 47.436405 -98.263336 33,025 52 514 -128
2018-09-22 02:43:12 GMT 47.432354 -98.271088 33,025 52 516 -64
2018-09-22 02:43:06 GMT 47.423603 -98.287773 33,025 52 515 -128
2018-09-22 02:43:02 GMT 47.417496 -98.299416 33,025 52 516 -128
2018-09-22 02:42:54 GMT 47.406418 -98.320496 33,050 52 516 -64
2018-09-22 02:42:51 GMT 47.402050 -98.328835 33,050 52 516 -64
2018-09-22 02:42:45 GMT 47.391815 -98.348305 33,050 52 517 -64
2018-09-22 02:42:41 GMT 47.387432 -98.356720 33,050 52 517 -64
2018-09-22 02:42:33 GMT 47.374584 -98.381233 33,050 52 518 0
2018-09-22 02:42:22 GMT 47.358803 -98.411446 33,050 52 519 0
2018-09-22 02:42:12 GMT 47.344482 -98.438873 33,050 52 519 0
2018-09-22 02:42:08 GMT 47.338623 -98.450066 33,050 52 519 0
2018-09-22 02:42:01 GMT 47.328960 -98.468559 33,050 52 519 0
2018-09-22 02:41:50 GMT 47.313740 -98.497643 33,050 52 519 0
2018-09-22 02:41:43 GMT 47.301086 -98.521614 33,050 52 519 0
2018-09-22 02:41:37 GMT 47.292557 -98.537788 33,050 52 519 -64
2018-09-22 02:41:28 GMT 47.280781 -98.559967 33,050 52 518 0
2018-09-22 02:41:21 GMT 47.268723 -98.582726 33,075 52 517 0
2018-09-22 02:41:18 GMT 47.265793 -98.588287 33,050 52 517 0
2018-09-22 02:41:11 GMT 47.254944 -98.608772 33,050 52 517 64
2018-09-22 02:40:57 GMT 47.235577 -98.645325 33,025 52 516 64
2018-09-22 02:40:47 GMT 47.220062 -98.674599 33,025 52 515 64
2018-09-22 02:40:36 GMT 47.204018 -98.704971 33,000 52 515 64
2018-09-22 02:40:28 GMT 47.191727 -98.728073 33,000 52 514 64
2018-09-22 02:40:25 GMT 47.188793 -98.733635 33,000 52 514 64
2018-09-22 02:40:15 GMT 47.173325 -98.762695 32,975 52 513 64
2018-09-22 02:40:04 GMT 47.158173 -98.791191 32,975 51 512 0
2018-09-22 02:39:53 GMT 47.142147 -98.821175 32,975 51 510 0
2018-09-22 02:39:47 GMT 47.131115 -98.841881 32,975 51 509 0
2018-09-22 02:39:43 GMT 47.127319 -98.848938 32,975 51 509 0
2018-09-22 02:39:32 GMT 47.111935 -98.877655 32,975 51 508 0
2018-09-22 02:39:23 GMT 47.096294 -98.906815 32,975 51 507 0
2018-09-22 02:39:16 GMT 47.086166 -98.925705 32,975 51 507 0
2018-09-22 02:39:12 GMT 47.081818 -98.933784 32,975 51 506 0
2018-09-22 02:39:02 GMT 47.066780 -98.961815 32,950 51 506 0
2018-09-22 02:38:50 GMT 47.050827 -98.991417 32,950 51 506 0
2018-09-22 02:38:44 GMT 47.040104 -99.011322 32,950 51 507 0
2018-09-22 02:38:41 GMT 47.035767 -99.019432 32,950 51 507 0
2018-09-22 02:38:33 GMT 47.024464 -99.040482 32,950 51 508 0
2018-09-22 02:38:30 GMT 47.020412 -99.048019 32,950 51 508 0
2018-09-22 02:38:23 GMT 47.009674 -99.068115 32,950 51 509 0
2018-09-22 02:38:20 GMT 47.005051 -99.076767 32,950 52 510 -64
2018-09-22 02:38:12 GMT 46.994858 -99.095764 32,975 51 510 -128
2018-09-22 02:38:08 GMT 46.989944 -99.104988 32,975 51 510 -128
2018-09-22 02:38:02 GMT 46.979729 -99.123932 32,975 51 511 -128
2018-09-22 02:37:59 GMT 46.975025 -99.132668 32,975 51 511 -128
2018-09-22 02:37:50 GMT 46.963341 -99.154358 33,000 51 512 -128
2018-09-22 02:37:47 GMT 46.958637 -99.163017 33,000 51 512 -128
2018-09-22 02:37:41 GMT 46.948334 -99.181961 33,000 51 513 -128
2018-09-22 02:37:37 GMT 46.943321 -99.191193 33,025 51 513 -128
2018-09-22 02:37:27 GMT 46.928566 -99.218376 33,025 51 514 -128
2018-09-22 02:37:20 GMT 46.917023 -99.239639 33,050 51 516 -128
2018-09-22 02:37:16 GMT 46.912552 -99.247810 33,050 51 516 -64
2018-09-22 02:37:06 GMT 46.897144 -99.276192 33,050 51 518 -64
2018-09-22 02:36:59 GMT 46.885227 -99.298096 33,050 51 519 0
2018-09-22 02:36:54 GMT 46.880768 -99.306381 33,050 51 519 0
2018-09-22 02:36:45 GMT 46.865582 -99.334465 33,050 51 521 0
2018-09-22 02:36:37 GMT 46.852753 -99.358208 33,050 51 521 -64
2018-09-22 02:36:33 GMT 46.849476 -99.364265 33,050 51 522 0
2018-09-22 02:36:23 GMT 46.834484 -99.391937 33,050 51 523 0
2018-09-22 02:36:13 GMT 46.818890 -99.420639 33,050 51 523 0
2018-09-22 02:36:03 GMT 46.802399 -99.450989 33,050 51 523 0
2018-09-22 02:35:51 GMT 46.786148 -99.480736 33,050 51 522 0
2018-09-22 02:35:42 GMT 46.771133 -99.508263 33,050 51 523 64
2018-09-22 02:35:31 GMT 46.755207 -99.537437 33,025 51 523 64
2018-09-22 02:35:21 GMT 46.739563 -99.566002 33,025 51 522 64
2018-09-22 02:35:13 GMT 46.728424 -99.586311 33,025 51 522 64
2018-09-22 02:35:10 GMT 46.723618 -99.595085 33,025 51 522 0
2018-09-22 02:35:03 GMT 46.711578 -99.616989 33,025 51 521 0
2018-09-22 02:35:00 GMT 46.708282 -99.623062 33,025 51 521 0
2018-09-22 02:34:49 GMT 46.692638 -99.651489 33,025 51 521 0
2018-09-22 02:34:39 GMT 46.676437 -99.681084 33,025 51 520 0
2018-09-22 02:34:27 GMT 46.660191 -99.710541 33,000 51 520 0
2018-09-22 02:34:18 GMT 46.644241 -99.739311 33,000 51 519 0
2018-09-22 02:34:07 GMT 46.628864 -99.766983 33,000 51 519 64
2018-09-22 02:33:56 GMT 46.613220 -99.795135 32,975 51 519 64
2018-09-22 02:33:46 GMT 46.596973 -99.824318 32,975 50 518 64
2018-09-22 02:33:38 GMT 46.585190 -99.845291 32,975 50 517 0
2018-09-22 02:33:35 GMT 46.580978 -99.852791 32,975 50 517 0
2018-09-22 02:33:24 GMT 46.564682 -99.881798 32,975 50 516 0
2018-09-22 02:33:14 GMT 46.549305 -99.909119 32,975 50 516 0
2018-09-22 02:33:04 GMT 46.533058 -99.938026 32,975 51 515 0
2018-09-22 02:32:53 GMT 46.517696 -99.966248 32,975 52 516 0
2018-09-22 02:32:43 GMT 46.502884 -99.994278 32,950 52 517 0
2018-09-22 02:32:32 GMT 46.486923 -100.024612 32,950 52 517 0
2018-09-22 02:32:22 GMT 46.472446 -100.052147 32,950 52 518 0
2018-09-22 02:32:11 GMT 46.457108 -100.081429 32,950 52 518 0
2018-09-22 02:32:01 GMT 46.441116 -100.111816 32,975 52 519 -64
2018-09-22 02:31:50 GMT 46.426804 -100.138840 32,975 52 520 -64
2018-09-22 02:31:40 GMT 46.410767 -100.169220 33,000 52 520 -64
2018-09-22 02:31:29 GMT 46.395859 -100.197388 33,000 52 521 -64
2018-09-22 02:31:19 GMT 46.380112 -100.227402 33,025 52 521 -64
2018-09-22 02:31:08 GMT 46.364960 -100.256271 33,025 52 522 -64
2018-09-22 02:30:58 GMT 46.348850 -100.286774 33,025 52 523 -64
2018-09-22 02:30:47 GMT 46.334232 -100.314583 33,025 52 523 -64
2018-09-22 02:30:37 GMT 46.318085 -100.345169 33,050 52 524 -64
2018-09-22 02:30:26 GMT 46.303696 -100.372467 33,050 52 525 -64
2018-09-22 02:30:16 GMT 46.287460 -100.402985 33,050 52 525 -64
2018-09-22 02:30:05 GMT 46.272366 -100.431313 33,050 52 525 0
2018-09-22 02:29:55 GMT 46.257004 -100.460220 33,050 52 525 0
2018-09-22 02:29:44 GMT 46.241642 -100.489128 33,050 52 525 0
2018-09-22 02:29:34 GMT 46.226231 -100.517967 33,050 52 525 0
2018-09-22 02:29:23 GMT 46.210171 -100.547905 33,050 52 525 0
2018-09-22 02:29:13 GMT 46.194489 -100.577286 33,050 52 525 0
2018-09-22 02:29:02 GMT 46.179062 -100.606094 33,025 52 525 64
2018-09-22 02:28:52 GMT 46.163342 -100.635384 33,025 52 525 0
2018-09-22 02:28:40 GMT 46.147327 -100.665253 33,025 52 525 0
2018-09-22 02:28:30 GMT 46.131920 -100.694023 33,025 52 524 0
2018-09-22 02:28:19 GMT 46.116554 -100.722725 33,025 52 524 -64
2018-09-22 02:28:09 GMT 46.101147 -100.751427 33,025 52 524 0
2018-09-22 02:27:58 GMT 46.085178 -100.781158 33,025 52 523 0
2018-09-22 02:27:48 GMT 46.070114 -100.809204 33,025 52 523 0
2018-09-22 02:27:37 GMT 46.054184 -100.838882 33,025 52 522 0
2018-09-22 02:27:27 GMT 46.038803 -100.867355 33,025 52 522 0
2018-09-22 02:27:16 GMT 46.022827 -100.896896 33,025 52 521 0
2018-09-22 02:27:06 GMT 46.007446 -100.925301 33,025 52 520 0
2018-09-22 02:26:55 GMT 45.992355 -100.953094 33,025 52 520 64
2018-09-22 02:26:44 GMT 45.976089 -100.983047 33,000 52 520 0
2018-09-22 02:26:35 GMT 45.961349 -101.010307 33,000 52 520 0
2018-09-22 02:26:24 GMT 45.945969 -101.038651 33,000 52 520 64
2018-09-22 02:26:13 GMT 45.930038 -101.067986 33,000 52 520 64
2018-09-22 02:26:03 GMT 45.912918 -101.099541 32,975 52 520 0
2018-09-22 02:25:52 GMT 45.898727 -101.125603 32,975 52 520 0
2018-09-22 02:25:43 GMT 45.884308 -101.152222 32,975 52 519 0
We lost coverage of the aircraft here for a total of 28 minutes
2018-09-22 01:57:30 GMT 43.312340 -105.512497 30,950 49 499 0
2018-09-22 01:57:10 GMT 43.282612 -105.559196 30,975 49 499 0
2018-09-22 01:56:50 GMT 43.251980 -105.607422 31,000 49 500 0
2018-09-22 01:56:30 GMT 43.219700 -105.657997 31,025 49 500 0
2018-09-22 01:55:50 GMT 43.159611 -105.752029 31,025 49 502 0
2018-09-22 01:55:30 GMT 43.128342 -105.800697 31,050 48 508 0
2018-09-22 01:55:10 GMT 43.096291 -105.850197 31,050 48 507 0
2018-09-22 01:54:31 GMT 43.034500 -105.945572 31,050 49 501 0
2018-09-22 01:54:10 GMT 43.002090 -105.996094 31,050 46 500 0
2018-09-22 01:53:31 GMT 42.937130 -106.081879 31,025 44 498 0
2018-09-22 01:53:11 GMT 42.903080 -106.126266 31,025 44 499 0
2018-09-22 01:52:49 GMT 42.866001 -106.174561 31,000 44 499 0
2018-09-22 01:52:11 GMT 42.802921 -106.256638 31,025 44 498 0
2018-09-22 01:51:51 GMT 42.768841 -106.300774 31,000 44 498 0
2018-09-22 01:51:31 GMT 42.734711 -106.344849 31,000 44 498 0
2018-09-22 01:50:51 GMT 42.667450 -106.431396 31,000 44 497 0
2018-09-22 01:50:11 GMT 42.597900 -106.521011 31,000 44 497 0
2018-09-22 01:49:51 GMT 42.566158 -106.561699 31,000 44 496 0
2018-09-22 01:49:31 GMT 42.532009 -106.605209 31,000 43 496 0
2018-09-22 01:49:11 GMT 42.498230 -106.648216 30,975 43 495 0
2018-09-22 01:48:31 GMT 42.431110 -106.733772 31,000 44 495 0
2018-09-22 01:48:11 GMT 42.397160 -106.777252 31,025 44 494 0
2018-09-22 01:47:51 GMT 42.361881 -106.822243 31,025 44 494 0
2018-09-22 01:47:11 GMT 42.295872 -106.906174 31,025 43 493 0
2018-09-22 01:46:31 GMT 42.228062 -106.991600 31,000 43 493 0
2018-09-22 01:45:51 GMT 42.161060 -107.076141 31,000 43 494 0
2018-09-22 01:45:31 GMT 42.127670 -107.118263 31,000 43 493 0
2018-09-22 01:45:10 GMT 42.093601 -107.161034 30,975 43 493 0
2018-09-22 01:44:31 GMT 42.025959 -107.245407 30,975 43 493 0
2018-09-22 01:44:11 GMT 41.992168 -107.287628 30,975 43 493 0

Making use of Plane Finder data

You are free to use the raw flight data, aircraft information and images provided in this report for your own purposes provided the data is correctly attributed to Plane Finder. We ask that you please credit Plane Finder and link to planefinder.net in close proximity to the content.

Optionally one of the following logos (no smaller then 150x24px) can be used and must link to planefinder.net

Embedding the Plane Finder map

You are welcome to embed the Plane Finder playback map on your website to offer visitors a more interactive experience. We suggest using the following HTML code:

<iframe src="//planefinder.net/data/report/LH8231-D-ALCK-7700-squawk-2018-09-22/map" width="800" height="600" seamless="seamless"></iframe>

Where our data comes from

Plane Finder has a global network of data feeds and antenna radars that receive data broadcast directly from aircraft. The primary technologies used are ADS-B and MLAT. We also show feeds from the FAA and a FLARM glider feed.

Click here to find out more about the Plane Finder network.

How we collect our data